<?xml version='1.0' encoding='UTF-8'?><gpx version="1.1" creator="JPX - https://github.com/jenetics/jpx" xmlns="http://www.topografix.com/GPX/1/1"><trk><trkseg><trkpt lat="43.311145617324385" lon="10.523081153414166"><ele>15.0</ele><time>2026-04-18T05:21:31Z</time></trkpt><trkpt lat="43.31110684774027" lon="10.522990851890885"><ele>15.0</ele><time>2026-04-18T05:21:36Z</time></trkpt><trkpt lat="43.311064497171266" lon="10.522906804005823"><ele>15.0</ele><time>2026-04-18T05:21:42Z</time></trkpt><trkpt lat="43.311027571807635" lon="10.522823053882078"><ele>15.0</ele><time>2026-04-18T05:21:47Z</time></trkpt><trkpt lat="43.31102725360008" lon="10.522725084990928"><ele>15.0</ele><time>2026-04-18T05:21:55Z</time></trkpt><trkpt lat="43.31101013374873" lon="10.522624219747732"><ele>15.0</ele><time>2026-04-18T05:22:00Z</time></trkpt><trkpt lat="43.310950172796076" lon="10.522565680975989"><ele>15.0</ele><time>2026-04-18T05:22:05Z</time></trkpt><trkpt lat="43.310917233963444" lon="10.522482123171423"><ele>15.142857142857142</ele><time>2026-04-18T05:22:13.001Z</time></trkpt><trkpt lat="43.31089877633289" lon="10.52239480978834"><ele>15.285714285714285</ele><time>2026-04-18T05:22:18.001Z</time></trkpt><trkpt lat="43.310872710445764" lon="10.522301600048783"><ele>15.428571428571427</ele><time>2026-04-18T05:22:23.001Z</time></trkpt><trkpt lat="43.31085126506181" lon="10.52221771256822"><ele>15.571428571428571</ele><time>2026-04-18T05:22:29.001Z</time></trkpt><trkpt lat="43.31079512540504" lon="10.522161184824727"><ele>15.714285714285712</ele><time>2026-04-18T05:22:38.001Z</time></trkpt><trkpt lat="43.31072816370984" lon="10.522206469769117"><ele>15.857142857142856</ele><time>2026-04-18T05:22:43.001Z</time></trkpt><trkpt lat="43.31066658305021" lon="10.522249940648091"><ele>16.0</ele><time>2026-04-18T05:22:47.001Z</time></trkpt><trkpt lat="43.31059575264108" lon="10.52226860359737"><ele>15.571428571428571</ele><time>2026-04-18T05:22:52.001Z</time></trkpt><trkpt lat="43.310531238922515" lon="10.522300466929071"><ele>15.142857142857142</ele><time>2026-04-18T05:22:58.001Z</time></trkpt><trkpt lat="43.31046485700397" lon="10.522328686509296"><ele>14.714285714285714</ele><time>2026-04-18T05:23:02.001Z</time></trkpt><trkpt lat="43.31038915086261" lon="10.522326262375206"><ele>14.285714285714285</ele><time>2026-04-18T05:23:05.001Z</time></trkpt><trkpt lat="43.31031906679593" lon="10.522272180276545"><ele>13.857142857142858</ele><time>2026-04-18T05:23:09.001Z</time></trkpt><trkpt lat="43.31029165207197" lon="10.522185559023049"><ele>13.428571428571427</ele><time>2026-04-18T05:23:12.001Z</time></trkpt><trkpt lat="43.310250217705295" lon="10.52211223483488"><ele>13.0</ele><time>2026-04-18T05:23:15.001Z</time></trkpt><trkpt lat="43.31020989696107" lon="10.522038423168143"><ele>13.0</ele><time>2026-04-18T05:23:19.001Z</time></trkpt><trkpt lat="43.3101707122109" lon="10.521952400251024"><ele>13.0</ele><time>2026-04-18T05:23:24.001Z</time></trkpt><trkpt lat="43.31015708961778" lon="10.52186374465198"><ele>13.0</ele><time>2026-04-18T05:23:27.001Z</time></trkpt><trkpt lat="43.31011411575587" lon="10.521789607725132"><ele>13.0</ele><time>2026-04-18T05:23:33.001Z</time></trkpt><trkpt lat="43.31009885651127" lon="10.52170224822772"><ele>13.0</ele><time>2026-04-18T05:23:37.001Z</time></trkpt><trkpt lat="43.31006920406072" lon="10.521619577263204"><ele>13.0</ele><time>2026-04-18T05:23:42.001Z</time></trkpt><trkpt lat="43.31004039256228" lon="10.521531973087074"><ele>13.0</ele><time>2026-04-18T05:23:46.001Z</time></trkpt><trkpt lat="43.3099917529095" lon="10.521460943746044"><ele>13.0</ele><time>2026-04-18T05:23:51.001Z</time></trkpt><trkpt lat="43.30998405639117" lon="10.521369043891479"><ele>13.0</ele><time>2026-04-18T05:23:54.001Z</time></trkpt><trkpt lat="43.30996464167071" lon="10.52128011082735"><ele>13.0</ele><time>2026-04-18T05:23:58.001Z</time></trkpt><trkpt lat="43.3099365106035" lon="10.52119899822014"><ele>13.0</ele><time>2026-04-18T05:24:05.001Z</time></trkpt><trkpt lat="43.309900489938464" lon="10.521111488359535"><ele>13.0</ele><time>2026-04-18T05:24:10.001Z</time></trkpt><trkpt lat="43.309875241940865" lon="10.521008395480242"><ele>13.0</ele><time>2026-04-18T05:24:15.001Z</time></trkpt><trkpt lat="43.30983859815263" lon="10.520931508660864"><ele>13.0</ele><time>2026-04-18T05:24:19.001Z</time></trkpt><trkpt lat="43.30979573982704" lon="10.520853870107288"><ele>13.0</ele><time>2026-04-18T05:24:24.001Z</time></trkpt><trkpt lat="43.30980959501918" lon="10.52075747462754"><ele>13.0</ele><time>2026-04-18T05:24:27.001Z</time></trkpt><trkpt lat="43.30978675615033" lon="10.520661051163046"><ele>13.0</ele><time>2026-04-18T05:24:32.001Z</time></trkpt><trkpt lat="43.30975407957135" lon="10.520578531542624"><ele>13.0</ele><time>2026-04-18T05:24:37.001Z</time></trkpt><trkpt lat="43.309725281026914" lon="10.520492236651243"><ele>13.0</ele><time>2026-04-18T05:24:41.001Z</time></trkpt><trkpt lat="43.30971104463761" lon="10.52040353194649"><ele>13.0</ele><time>2026-04-18T05:24:44.001Z</time></trkpt><trkpt lat="43.309682852369136" lon="10.520311529238986"><ele>13.0</ele><time>2026-04-18T05:24:48.001Z</time></trkpt><trkpt lat="43.30965616792438" lon="10.520223259111491"><ele>12.857142857142856</ele><time>2026-04-18T05:24:52.001Z</time></trkpt><trkpt lat="43.30962849381239" lon="10.520142529895276"><ele>12.714285714285715</ele><time>2026-04-18T05:24:56.001Z</time></trkpt><trkpt lat="43.309601855711115" lon="10.520052942821069"><ele>12.571428571428571</ele><time>2026-04-18T05:25:00.001Z</time></trkpt><trkpt lat="43.309557131417655" lon="10.519981001245135"><ele>12.428571428571427</ele><time>2026-04-18T05:25:05.001Z</time></trkpt><trkpt lat="43.30951491473673" lon="10.519915395451052"><ele>12.285714285714285</ele><time>2026-04-18T05:25:10.001Z</time></trkpt><trkpt lat="43.309464134925975" lon="10.519854883492648"><ele>12.142857142857142</ele><time>2026-04-18T05:25:16.001Z</time></trkpt><trkpt lat="43.30944997239781" lon="10.519750220100867"><ele>12.0</ele><time>2026-04-18T05:25:20.001Z</time></trkpt><trkpt lat="43.30944289346404" lon="10.519643641351134"><ele>11.857142857142856</ele><time>2026-04-18T05:25:24.001Z</time></trkpt><trkpt lat="43.30942704080244" lon="10.519555968742567"><ele>11.714285714285714</ele><time>2026-04-18T05:25:28.001Z</time></trkpt><trkpt lat="43.30940107533177" lon="10.519463958095498"><ele>11.571428571428571</ele><time>2026-04-18T05:25:33.001Z</time></trkpt><trkpt lat="43.309385558356915" lon="10.519359843604796"><ele>11.428571428571427</ele><time>2026-04-18T05:25:37.001Z</time></trkpt><trkpt lat="43.309365059360736" lon="10.519270370921763"><ele>11.285714285714285</ele><time>2026-04-18T05:25:41.001Z</time></trkpt><trkpt lat="43.30932904466279" lon="10.519174006245125"><ele>11.142857142857142</ele><time>2026-04-18T05:25:46Z</time></trkpt><trkpt lat="43.30930025670412" lon="10.519096178204544"><ele>11.0</ele><time>2026-04-18T05:25:50Z</time></trkpt><trkpt lat="43.30926818850735" lon="10.519001657276975"><ele>11.0</ele><time>2026-04-18T05:25:55Z</time></trkpt><trkpt lat="43.30923567373953" lon="10.51891269027779"><ele>11.0</ele><time>2026-04-18T05:26:01Z</time></trkpt><trkpt lat="43.309206212120756" lon="10.518813589533998"><ele>11.0</ele><time>2026-04-18T05:26:06Z</time></trkpt><trkpt lat="43.30920102495845" lon="10.518715616398222"><ele>11.0</ele><time>2026-04-18T05:26:09Z</time></trkpt><trkpt lat="43.30919828978558" lon="10.518608662535165"><ele>11.0</ele><time>2026-04-18T05:26:12Z</time></trkpt><trkpt lat="43.30917487765201" lon="10.51850764720163"><ele>11.0</ele><time>2026-04-18T05:26:17Z</time></trkpt><trkpt lat="43.30914874551357" lon="10.51842807592828"><ele>11.0</ele><time>2026-04-18T05:26:23Z</time></trkpt><trkpt lat="43.309126980256295" lon="10.518341911765742"><ele>11.142857142857142</ele><time>2026-04-18T05:26:27Z</time></trkpt><trkpt lat="43.30911573195483" lon="10.518241553989391"><ele>11.285714285714285</ele><time>2026-04-18T05:26:31Z</time></trkpt><trkpt lat="43.3091430170993" lon="10.518139071593788"><ele>11.428571428571427</ele><time>2026-04-18T05:26:39Z</time></trkpt><trkpt lat="43.30915590455288" lon="10.518039820108847"><ele>11.571428571428571</ele><time>2026-04-18T05:26:43Z</time></trkpt><trkpt lat="43.309196075703646" lon="10.51795670306368"><ele>11.714285714285714</ele><time>2026-04-18T05:26:48Z</time></trkpt><trkpt lat="43.30920519606585" lon="10.517851369968984"><ele>11.857142857142856</ele><time>2026-04-18T05:26:52Z</time></trkpt><trkpt lat="43.309192159695506" lon="10.51776533353277"><ele>12.0</ele><time>2026-04-18T05:26:57Z</time></trkpt><trkpt lat="43.30921173890948" lon="10.517670849732617"><ele>12.428571428571427</ele><time>2026-04-18T05:27:02Z</time></trkpt><trkpt lat="43.309236155329344" lon="10.517572963118914"><ele>12.857142857142858</ele><time>2026-04-18T05:27:07Z</time></trkpt><trkpt lat="43.30928168241463" lon="10.517489878543252"><ele>13.285714285714285</ele><time>2026-04-18T05:27:11Z</time></trkpt><trkpt lat="43.309298154070774" lon="10.517394990126599"><ele>13.714285714285714</ele><time>2026-04-18T05:27:15Z</time></trkpt><trkpt lat="43.309309452022454" lon="10.517305410098098"><ele>14.142857142857142</ele><time>2026-04-18T05:27:19Z</time></trkpt><trkpt lat="43.30926198477975" lon="10.517233139247221"><ele>14.571428571428571</ele><time>2026-04-18T05:27:23Z</time></trkpt><trkpt lat="43.309201871638045" lon="10.517188365409828"><ele>15.0</ele><time>2026-04-18T05:27:25Z</time></trkpt><trkpt lat="43.30913731343079" lon="10.517154377952677"><ele>15.0</ele><time>2026-04-18T05:27:30Z</time></trkpt><trkpt lat="43.30908042073373" lon="10.517112732937884"><ele>15.0</ele><time>2026-04-18T05:27:34Z</time></trkpt><trkpt lat="43.30903069602747" lon="10.517036547640458"><ele>15.0</ele><time>2026-04-18T05:27:39Z</time></trkpt><trkpt lat="43.30899147913629" lon="10.516955945763247"><ele>15.0</ele><time>2026-04-18T05:27:43Z</time></trkpt><trkpt lat="43.30896869370921" lon="10.516867759218393"><ele>15.0</ele><time>2026-04-18T05:27:47Z</time></trkpt><trkpt lat="43.30896444859269" lon="10.51676874035275"><ele>15.0</ele><time>2026-04-18T05:27:51Z</time></trkpt><trkpt lat="43.308952947698295" lon="10.516661794750911"><ele>15.0</ele><time>2026-04-18T05:27:55Z</time></trkpt><trkpt lat="43.308942883244164" lon="10.516563848443917"><ele>14.571428571428571</ele><time>2026-04-18T05:27:59Z</time></trkpt><trkpt lat="43.30892649078343" lon="10.516467277200897"><ele>14.142857142857142</ele><time>2026-04-18T05:28:03Z</time></trkpt><trkpt lat="43.3088992370495" lon="10.516388732263483"><ele>13.714285714285714</ele><time>2026-04-18T05:28:09Z</time></trkpt><trkpt lat="43.30887979698676" lon="10.51629553167711"><ele>13.285714285714285</ele><time>2026-04-18T05:28:16Z</time></trkpt><trkpt lat="43.30882830643118" lon="10.5162312690155"><ele>12.857142857142858</ele><time>2026-04-18T05:28:20Z</time></trkpt><trkpt lat="43.308868570974404" lon="10.516152071262647"><ele>12.428571428571427</ele><time>2026-04-18T05:28:32Z</time></trkpt><trkpt lat="43.30893909206974" lon="10.516170976076264"><ele>12.0</ele><time>2026-04-18T05:28:38Z</time></trkpt><trkpt lat="43.3089999825907" lon="10.516145221551723"><ele>11.571428571428571</ele><time>2026-04-18T05:28:43Z</time></trkpt><trkpt lat="43.309054307792834" lon="10.516080708022637"><ele>11.142857142857142</ele><time>2026-04-18T05:28:48Z</time></trkpt><trkpt lat="43.309117723846974" lon="10.516037701683652"><ele>10.714285714285715</ele><time>2026-04-18T05:28:52Z</time></trkpt><trkpt lat="43.30919175538592" lon="10.516017269915762"><ele>10.285714285714285</ele><time>2026-04-18T05:28:56Z</time></trkpt><trkpt lat="43.30924653695579" lon="10.515971126495623"><ele>9.857142857142858</ele><time>2026-04-18T05:29:01Z</time></trkpt><trkpt lat="43.30930481863892" lon="10.515918587812497"><ele>9.428571428571429</ele><time>2026-04-18T05:29:05Z</time></trkpt><trkpt lat="43.30935744704775" lon="10.51587021547033"><ele>9.0</ele><time>2026-04-18T05:29:10Z</time></trkpt><trkpt lat="43.309412069920334" lon="10.51581499187493"><ele>9.000000000000002</ele><time>2026-04-18T05:29:14Z</time></trkpt><trkpt lat="43.30944556050696" lon="10.515720492759723"><ele>9.0</ele><time>2026-04-18T05:29:18Z</time></trkpt><trkpt lat="43.309465494771835" lon="10.515620006375064"><ele>9.0</ele><time>2026-04-18T05:29:22Z</time></trkpt><trkpt lat="43.309462998417224" lon="10.51553155926673"><ele>9.0</ele><time>2026-04-18T05:29:26Z</time></trkpt><trkpt lat="43.309443861969896" lon="10.515447786636637"><ele>9.0</ele><time>2026-04-18T05:29:30Z</time></trkpt><trkpt lat="43.30943619804191" lon="10.515343089698593"><ele>9.000000000000002</ele><time>2026-04-18T05:29:34Z</time></trkpt><trkpt lat="43.30943935183716" lon="10.51525265293668"><ele>9.0</ele><time>2026-04-18T05:29:38Z</time></trkpt><trkpt lat="43.30943532533511" lon="10.515154464399851"><ele>9.0</ele><time>2026-04-18T05:29:43Z</time></trkpt><trkpt lat="43.30939564204049" lon="10.515080433697541"><ele>9.0</ele><time>2026-04-18T05:29:54Z</time></trkpt><trkpt lat="43.30924185497465" lon="10.514763105013449"><ele>9.0</ele><time>2026-04-18T05:30:17.6Z</time></trkpt><trkpt lat="43.30919984488259" lon="10.514489857619994"><ele>8.857142857142858</ele><time>2026-04-18T05:30:18.55Z</time></trkpt><trkpt lat="43.309172463421916" lon="10.514389067919405"><ele>8.714285714285715</ele><time>2026-04-18T05:30:21.4Z</time></trkpt><trkpt lat="43.309206369261624" lon="10.51430715205168"><ele>8.571428571428571</ele><time>2026-04-18T05:30:30Z</time></trkpt><trkpt lat="43.309195557912375" lon="10.514209639380454"><ele>8.428571428571429</ele><time>2026-04-18T05:30:34Z</time></trkpt><trkpt lat="43.309132125167714" lon="10.51418015441375"><ele>8.285714285714285</ele><time>2026-04-18T05:30:39Z</time></trkpt><trkpt lat="43.3090580468987" lon="10.514144990348463"><ele>8.142857142857142</ele><time>2026-04-18T05:30:43Z</time></trkpt><trkpt lat="43.30899784464031" lon="10.514091093348771"><ele>8.0</ele><time>2026-04-18T05:30:50Z</time></trkpt><trkpt lat="43.30896741340283" lon="10.514003326187826"><ele>8.0</ele><time>2026-04-18T05:30:56Z</time></trkpt><trkpt lat="43.30890860425604" lon="10.513928170764867"><ele>7.999999999999999</ele><time>2026-04-18T05:31:00Z</time></trkpt><trkpt lat="43.30887378648379" lon="10.513840796500457"><ele>8.0</ele><time>2026-04-18T05:31:03Z</time></trkpt><trkpt lat="43.30885144746902" lon="10.513746648263044"><ele>8.0</ele><time>2026-04-18T05:31:07Z</time></trkpt><trkpt lat="43.30882812890686" lon="10.513645617193923"><ele>7.999999999999999</ele><time>2026-04-18T05:31:13Z</time></trkpt><trkpt lat="43.30878786255658" lon="10.513561261474518"><ele>8.0</ele><time>2026-04-18T05:31:17Z</time></trkpt><trkpt lat="43.308744146897745" lon="10.513482827878892"><ele>8.0</ele><time>2026-04-18T05:31:21Z</time></trkpt><trkpt lat="43.308705641942154" lon="10.513401163697491"><ele>8.0</ele><time>2026-04-18T05:31:25Z</time></trkpt><trkpt lat="43.30867109379091" lon="10.513313262490353"><ele>7.999999999999999</ele><time>2026-04-18T05:31:30Z</time></trkpt><trkpt lat="43.30862122695222" lon="10.513229168199848"><ele>8.0</ele><time>2026-04-18T05:31:34Z</time></trkpt><trkpt lat="43.30857752886518" lon="10.513139364220999"><ele>8.0</ele><time>2026-04-18T05:31:38Z</time></trkpt><trkpt lat="43.308541140910236" lon="10.513067733412194"><ele>7.999999999999999</ele><time>2026-04-18T05:31:42Z</time></trkpt><trkpt lat="43.30850792106844" lon="10.512990149667125"><ele>8.0</ele><time>2026-04-18T05:31:46Z</time></trkpt><trkpt lat="43.308480915117364" lon="10.512901502143475"><ele>8.0</ele><time>2026-04-18T05:31:50Z</time></trkpt><trkpt lat="43.30843967044993" lon="10.512816866049755"><ele>7.857142857142857</ele><time>2026-04-18T05:31:55Z</time></trkpt><trkpt lat="43.308397577384746" lon="10.512737700503182"><ele>7.7142857142857135</ele><time>2026-04-18T05:32:00Z</time></trkpt><trkpt lat="43.308356526052435" lon="10.512665569430249"><ele>7.571428571428571</ele><time>2026-04-18T05:32:05Z</time></trkpt><trkpt lat="43.3083240053326" lon="10.51258516392745"><ele>7.428571428571429</ele><time>2026-04-18T05:32:09Z</time></trkpt><trkpt lat="43.30828966499364" lon="10.51250860340797"><ele>7.285714285714286</ele><time>2026-04-18T05:32:13Z</time></trkpt><trkpt lat="43.30826421704167" lon="10.512421675382525"><ele>7.142857142857142</ele><time>2026-04-18T05:32:20Z</time></trkpt><trkpt lat="43.308230558831525" lon="10.512333997248279"><ele>7.0</ele><time>2026-04-18T05:32:26Z</time></trkpt><trkpt lat="43.3081859969816" lon="10.512252336250672"><ele>7.0</ele><time>2026-04-18T05:32:30Z</time></trkpt><trkpt lat="43.30814809004819" lon="10.51217744048883"><ele>7.0</ele><time>2026-04-18T05:32:33Z</time></trkpt><trkpt lat="43.308108937449624" lon="10.512093519765017"><ele>7.0</ele><time>2026-04-18T05:32:38Z</time></trkpt><trkpt lat="43.3080792564286" lon="10.51200972761914"><ele>7.0</ele><time>2026-04-18T05:32:42Z</time></trkpt><trkpt lat="43.30803394284602" lon="10.511927621279881"><ele>7.0</ele><time>2026-04-18T05:32:47Z</time></trkpt><trkpt lat="43.307982005464865" lon="10.511838796058035"><ele>7.0</ele><time>2026-04-18T05:32:51Z</time></trkpt><trkpt lat="43.307943814079614" lon="10.511764112337541"><ele>7.0</ele><time>2026-04-18T05:32:55Z</time></trkpt><trkpt lat="43.30789841861969" lon="10.511694966140421"><ele>7.0</ele><time>2026-04-18T05:33:00Z</time></trkpt><trkpt lat="43.3078609147953" lon="10.511613555218648"><ele>7.0</ele><time>2026-04-18T05:33:04Z</time></trkpt><trkpt lat="43.307824840429674" lon="10.511532175781342"><ele>7.0</ele><time>2026-04-18T05:33:08Z</time></trkpt><trkpt lat="43.3077970825654" lon="10.511439032602166"><ele>7.0</ele><time>2026-04-18T05:33:13Z</time></trkpt><trkpt lat="43.30775015013709" lon="10.51136731280738"><ele>7.0</ele><time>2026-04-18T05:33:18Z</time></trkpt><trkpt lat="43.30771343296761" lon="10.511289144306271"><ele>7.0</ele><time>2026-04-18T05:33:22Z</time></trkpt><trkpt lat="43.30767803308014" lon="10.511213792361067"><ele>7.0</ele><time>2026-04-18T05:33:27Z</time></trkpt><trkpt lat="43.307640426359065" lon="10.511133893769147"><ele>7.142857142857142</ele><time>2026-04-18T05:33:31Z</time></trkpt><trkpt lat="43.30759406877797" lon="10.51106757206315"><ele>7.285714285714286</ele><time>2026-04-18T05:33:36Z</time></trkpt><trkpt lat="43.30759073130032" lon="10.510934246120591"><ele>7.428571428571429</ele><time>2026-04-18T05:33:48Z</time></trkpt><trkpt lat="43.30754071315281" lon="10.510870735503088"><ele>7.571428571428571</ele><time>2026-04-18T05:33:56Z</time></trkpt><trkpt lat="43.307497775710544" lon="10.510801863309862"><ele>7.7142857142857135</ele><time>2026-04-18T05:34:02Z</time></trkpt><trkpt lat="43.3074597208585" lon="10.510721709065646"><ele>7.857142857142857</ele><time>2026-04-18T05:34:07Z</time></trkpt><trkpt lat="43.30741567071989" lon="10.510632726740301"><ele>8.0</ele><time>2026-04-18T05:34:12Z</time></trkpt><trkpt lat="43.30737214707182" lon="10.51055472652289"><ele>8.0</ele><time>2026-04-18T05:34:17Z</time></trkpt><trkpt lat="43.30731896729184" lon="10.510477251718822"><ele>7.999999999999999</ele><time>2026-04-18T05:34:24Z</time></trkpt><trkpt lat="43.30727425170841" lon="10.510410282281287"><ele>8.0</ele><time>2026-04-18T05:34:29Z</time></trkpt><trkpt lat="43.307229242317206" lon="10.510334344375122"><ele>8.0</ele><time>2026-04-18T05:34:34Z</time></trkpt><trkpt lat="43.30719585157332" lon="10.510251833093141"><ele>7.999999999999999</ele><time>2026-04-18T05:34:38Z</time></trkpt><trkpt lat="43.30715531705633" lon="10.510184112986579"><ele>8.0</ele><time>2026-04-18T05:34:44Z</time></trkpt><trkpt lat="43.30710009524494" lon="10.510101225715557"><ele>8.0</ele><time>2026-04-18T05:34:49Z</time></trkpt><trkpt lat="43.307065864836034" lon="10.510022631513529"><ele>7.833333333333333</ele><time>2026-04-18T05:34:53Z</time></trkpt><trkpt lat="43.30702990792187" lon="10.509929107508432"><ele>7.666666666666666</ele><time>2026-04-18T05:34:57Z</time></trkpt><trkpt lat="43.306993547321426" lon="10.509838382243679"><ele>7.5</ele><time>2026-04-18T05:35:01Z</time></trkpt><trkpt lat="43.30695354194204" lon="10.509742895222042"><ele>7.333333333333334</ele><time>2026-04-18T05:35:07Z</time></trkpt><trkpt lat="43.30692381021694" lon="10.50964053999215"><ele>7.166666666666667</ele><time>2026-04-18T05:35:11Z</time></trkpt><trkpt lat="43.306892436439696" lon="10.509545894108644"><ele>7.0</ele><time>2026-04-18T05:35:15Z</time></trkpt><trkpt lat="43.3068424362885" lon="10.509479778288421"><ele>6.857142857142857</ele><time>2026-04-18T05:35:19Z</time></trkpt><trkpt lat="43.306795133596175" lon="10.509416124196916"><ele>6.714285714285714</ele><time>2026-04-18T05:35:23Z</time></trkpt><trkpt lat="43.306766523587" lon="10.509337793292275"><ele>6.571428571428571</ele><time>2026-04-18T05:35:27Z</time></trkpt><trkpt lat="43.30671694122695" lon="10.509264061216058"><ele>6.428571428571429</ele><time>2026-04-18T05:35:31Z</time></trkpt><trkpt lat="43.30668727266966" lon="10.509176515611925"><ele>6.285714285714286</ele><time>2026-04-18T05:35:36Z</time></trkpt><trkpt lat="43.306643428849284" lon="10.50908707214998"><ele>6.142857142857142</ele><time>2026-04-18T05:35:41Z</time></trkpt><trkpt lat="43.30659410977174" lon="10.509013701009824"><ele>6.0</ele><time>2026-04-18T05:35:46Z</time></trkpt><trkpt lat="43.30655468825005" lon="10.508934190184334"><ele>5.999999999999999</ele><time>2026-04-18T05:35:51Z</time></trkpt><trkpt lat="43.306511175538255" lon="10.508850093759676"><ele>6.0</ele><time>2026-04-18T05:35:56Z</time></trkpt><trkpt lat="43.30648187138695" lon="10.50876235460739"><ele>6.0</ele><time>2026-04-18T05:36:00Z</time></trkpt><trkpt lat="43.306451634877945" lon="10.508663062401315"><ele>6.0</ele><time>2026-04-18T05:36:05Z</time></trkpt><trkpt lat="43.30641319971147" lon="10.508593423461832"><ele>6.0</ele><time>2026-04-18T05:36:09Z</time></trkpt><trkpt lat="43.30637398207742" lon="10.508508606650633"><ele>5.999999999999999</ele><time>2026-04-18T05:36:15Z</time></trkpt><trkpt lat="43.30633179178811" lon="10.508429991878996"><ele>6.0</ele><time>2026-04-18T05:36:19Z</time></trkpt><trkpt lat="43.30628241412875" lon="10.508347453485213"><ele>6.142857142857142</ele><time>2026-04-18T05:36:24Z</time></trkpt><trkpt lat="43.306238153088266" lon="10.508258398993986"><ele>6.285714285714286</ele><time>2026-04-18T05:36:29Z</time></trkpt><trkpt lat="43.306205021467946" lon="10.508174694247328"><ele>6.428571428571429</ele><time>2026-04-18T05:36:33Z</time></trkpt><trkpt lat="43.30617712677385" lon="10.508094791581607"><ele>6.571428571428571</ele><time>2026-04-18T05:36:37Z</time></trkpt><trkpt lat="43.306136678393344" lon="10.508013182845705"><ele>6.714285714285714</ele><time>2026-04-18T05:36:42Z</time></trkpt><trkpt lat="43.30610099880791" lon="10.507930854907345"><ele>6.857142857142857</ele><time>2026-04-18T05:36:46Z</time></trkpt><trkpt lat="43.30606001257256" lon="10.50786002409319"><ele>7.0</ele><time>2026-04-18T05:36:50Z</time></trkpt><trkpt lat="43.30600272055287" lon="10.507788673281572"><ele>7.0</ele><time>2026-04-18T05:36:55Z</time></trkpt><trkpt lat="43.30594959474662" lon="10.507719631211927"><ele>7.0</ele><time>2026-04-18T05:37:02Z</time></trkpt><trkpt lat="43.30590618299016" lon="10.507630822961552"><ele>7.0</ele><time>2026-04-18T05:37:08Z</time></trkpt><trkpt lat="43.305868526670025" lon="10.507538177046973"><ele>7.0</ele><time>2026-04-18T05:37:12Z</time></trkpt><trkpt lat="43.305833984082206" lon="10.507450514869955"><ele>7.0</ele><time>2026-04-18T05:37:16Z</time></trkpt><trkpt lat="43.305801816294206" lon="10.507371254738059"><ele>7.0</ele><time>2026-04-18T05:37:20Z</time></trkpt><trkpt lat="43.30577285396398" lon="10.507294240786727"><ele>7.0</ele><time>2026-04-18T05:37:23Z</time></trkpt><trkpt lat="43.305728329261434" lon="10.50723023188331"><ele>7.0</ele><time>2026-04-18T05:37:28Z</time></trkpt><trkpt lat="43.305703580168185" lon="10.50714804648533"><ele>7.0</ele><time>2026-04-18T05:37:33Z</time></trkpt><trkpt lat="43.30567750054604" lon="10.507053599442171"><ele>7.0</ele><time>2026-04-18T05:37:37Z</time></trkpt><trkpt lat="43.305642646434826" lon="10.50697760745092"><ele>7.0</ele><time>2026-04-18T05:37:42Z</time></trkpt><trkpt lat="43.305605730156536" lon="10.50690222405198"><ele>7.0</ele><time>2026-04-18T05:37:48Z</time></trkpt><trkpt lat="43.30557717826164" lon="10.506805351939855"><ele>7.0</ele><time>2026-04-18T05:38:05Z</time></trkpt><trkpt lat="43.30551789042367" lon="10.506749259843678"><ele>7.0</ele><time>2026-04-18T05:38:12Z</time></trkpt><trkpt lat="43.30547531585796" lon="10.50667778367597"><ele>6.714285714285714</ele><time>2026-04-18T05:38:17Z</time></trkpt><trkpt lat="43.30543802945016" lon="10.506604533001248"><ele>6.428571428571429</ele><time>2026-04-18T05:38:22Z</time></trkpt><trkpt lat="43.30540304731645" lon="10.506517092997383"><ele>6.142857142857142</ele><time>2026-04-18T05:38:27Z</time></trkpt><trkpt lat="43.30538961648999" lon="10.506422450743766"><ele>5.857142857142858</ele><time>2026-04-18T05:38:33Z</time></trkpt><trkpt lat="43.30535378286968" lon="10.506341545157795"><ele>5.571428571428571</ele><time>2026-04-18T05:38:40Z</time></trkpt><trkpt lat="43.30531231422132" lon="10.506248348364446"><ele>5.285714285714286</ele><time>2026-04-18T05:38:46Z</time></trkpt><trkpt lat="43.30526770969998" lon="10.506172639197883"><ele>5.0</ele><time>2026-04-18T05:38:51Z</time></trkpt><trkpt lat="43.305224449805806" lon="10.506099076212475"><ele>4.857142857142857</ele><time>2026-04-18T05:38:57Z</time></trkpt><trkpt lat="43.3051906839359" lon="10.50601455127114"><ele>4.714285714285714</ele><time>2026-04-18T05:39:02Z</time></trkpt><trkpt lat="43.3051429486237" lon="10.505940428133446"><ele>4.571428571428571</ele><time>2026-04-18T05:39:07Z</time></trkpt><trkpt lat="43.30509943216867" lon="10.505876628554399"><ele>4.428571428571429</ele><time>2026-04-18T05:39:11Z</time></trkpt><trkpt lat="43.30506842845696" lon="10.505798706981496"><ele>4.285714285714286</ele><time>2026-04-18T05:39:17Z</time></trkpt><trkpt lat="43.30501009995854" lon="10.505717799201756"><ele>4.142857142857142</ele><time>2026-04-18T05:39:24Z</time></trkpt><trkpt lat="43.30495056913107" lon="10.505650653963428"><ele>4.0</ele><time>2026-04-18T05:39:28Z</time></trkpt><trkpt lat="43.30490375266521" lon="10.505585789089414"><ele>4.0</ele><time>2026-04-18T05:39:32Z</time></trkpt><trkpt lat="43.304864508463844" lon="10.505492188157518"><ele>3.9999999999999996</ele><time>2026-04-18T05:39:36Z</time></trkpt><trkpt lat="43.30483847614448" lon="10.50539732926413"><ele>4.0</ele><time>2026-04-18T05:39:40Z</time></trkpt><trkpt lat="43.30480115019748" lon="10.505313615612096"><ele>4.0</ele><time>2026-04-18T05:39:44Z</time></trkpt><trkpt lat="43.30476510119378" lon="10.505238241481383"><ele>3.9999999999999996</ele><time>2026-04-18T05:39:48Z</time></trkpt><trkpt lat="43.30472323709386" lon="10.505148823072249"><ele>4.0</ele><time>2026-04-18T05:39:53Z</time></trkpt><trkpt lat="43.30468814016921" lon="10.50506428144522"><ele>4.0</ele><time>2026-04-18T05:39:57Z</time></trkpt><trkpt lat="43.30465731291285" lon="10.504968292118404"><ele>4.0</ele><time>2026-04-18T05:40:02Z</time></trkpt><trkpt lat="43.30462698053358" lon="10.504882230170184"><ele>3.9999999999999996</ele><time>2026-04-18T05:40:06Z</time></trkpt><trkpt lat="43.30459318809255" lon="10.504790635132425"><ele>4.0</ele><time>2026-04-18T05:40:10Z</time></trkpt><trkpt lat="43.30458393432323" lon="10.50470340080977"><ele>4.0</ele><time>2026-04-18T05:40:16Z</time></trkpt><trkpt lat="43.304524228717014" lon="10.504618572926363"><ele>3.9999999999999996</ele><time>2026-04-18T05:40:21Z</time></trkpt><trkpt lat="43.3044687159976" lon="10.504552169352168"><ele>4.0</ele><time>2026-04-18T05:40:26Z</time></trkpt><trkpt lat="43.304420298929664" lon="10.504477588942786"><ele>4.0</ele><time>2026-04-18T05:40:30Z</time></trkpt><trkpt lat="43.304381728539525" lon="10.504391453726365"><ele>4.0</ele><time>2026-04-18T05:40:34Z</time></trkpt><trkpt lat="43.30433427651782" lon="10.504325061321499"><ele>3.9999999999999996</ele><time>2026-04-18T05:40:39Z</time></trkpt><trkpt lat="43.30428880286384" lon="10.504247463324853"><ele>4.0</ele><time>2026-04-18T05:40:44Z</time></trkpt><trkpt lat="43.30424545587193" lon="10.504160367857057"><ele>4.0</ele><time>2026-04-18T05:40:49Z</time></trkpt><trkpt lat="43.30421292638584" lon="10.504082393516757"><ele>3.9999999999999996</ele><time>2026-04-18T05:40:53Z</time></trkpt><trkpt lat="43.30417943528597" lon="10.504004204420415"><ele>4.0</ele><time>2026-04-18T05:40:57Z</time></trkpt><trkpt lat="43.30413971559979" lon="10.503919241396133"><ele>4.0</ele><time>2026-04-18T05:41:02Z</time></trkpt><trkpt lat="43.30410044282283" lon="10.503840665683915"><ele>4.0</ele><time>2026-04-18T05:41:07Z</time></trkpt><trkpt lat="43.30405934375082" lon="10.503758724114853"><ele>3.9999999999999996</ele><time>2026-04-18T05:41:12Z</time></trkpt><trkpt lat="43.30403145092199" lon="10.50367992813869"><ele>4.0</ele><time>2026-04-18T05:41:16Z</time></trkpt><trkpt lat="43.30399810195769" lon="10.503588389915208"><ele>4.0</ele><time>2026-04-18T05:41:21Z</time></trkpt><trkpt lat="43.30395955937419" lon="10.50349796520164"><ele>3.9999999999999996</ele><time>2026-04-18T05:41:26Z</time></trkpt><trkpt lat="43.303915789887306" lon="10.503434782961765"><ele>4.0</ele><time>2026-04-18T05:41:31Z</time></trkpt><trkpt lat="43.30386804363465" lon="10.50336799433404"><ele>4.0</ele><time>2026-04-18T05:41:36Z</time></trkpt><trkpt lat="43.30382053631071" lon="10.503299321273184"><ele>3.8571428571428568</ele><time>2026-04-18T05:41:41Z</time></trkpt><trkpt lat="43.303780181180315" lon="10.503212257513395"><ele>3.714285714285714</ele><time>2026-04-18T05:41:47Z</time></trkpt><trkpt lat="43.30376074549982" lon="10.503127312131488"><ele>3.571428571428571</ele><time>2026-04-18T05:41:52Z</time></trkpt><trkpt lat="43.30372030820965" lon="10.50305866453112"><ele>3.4285714285714284</ele><time>2026-04-18T05:41:56Z</time></trkpt><trkpt lat="43.303680091304734" lon="10.5029812919365"><ele>3.2857142857142856</ele><time>2026-04-18T05:42:02Z</time></trkpt><trkpt lat="43.303644007655436" lon="10.502893198059995"><ele>3.1428571428571423</ele><time>2026-04-18T05:42:08Z</time></trkpt><trkpt lat="43.30361256043862" lon="10.502792522341709"><ele>3.0</ele><time>2026-04-18T05:42:12Z</time></trkpt><trkpt lat="43.30359093476119" lon="10.50270836164946"><ele>2.9999999999999996</ele><time>2026-04-18T05:42:16Z</time></trkpt><trkpt lat="43.30356265097643" lon="10.502613377661257"><ele>3.0</ele><time>2026-04-18T05:42:21Z</time></trkpt><trkpt lat="43.30351452376996" lon="10.502531482634076"><ele>3.0</ele><time>2026-04-18T05:42:25Z</time></trkpt><trkpt lat="43.30347762442789" lon="10.50245622711225"><ele>3.0</ele><time>2026-04-18T05:42:29Z</time></trkpt><trkpt lat="43.303441128761506" lon="10.502371265365158"><ele>3.0</ele><time>2026-04-18T05:42:33Z</time></trkpt><trkpt lat="43.30340343729755" lon="10.50228468655872"><ele>2.9999999999999996</ele><time>2026-04-18T05:42:37Z</time></trkpt><trkpt lat="43.30337284357416" lon="10.502208869519"><ele>3.0</ele><time>2026-04-18T05:42:41Z</time></trkpt><trkpt lat="43.30332916185225" lon="10.502123279840081"><ele>2.9999999999999996</ele><time>2026-04-18T05:42:46Z</time></trkpt><trkpt lat="43.30328820581678" lon="10.502044531731235"><ele>3.0</ele><time>2026-04-18T05:42:51Z</time></trkpt><trkpt lat="43.3032539500282" lon="10.501955335217435"><ele>3.0</ele><time>2026-04-18T05:42:56Z</time></trkpt><trkpt lat="43.303210670635934" lon="10.50187381510467"><ele>3.0</ele><time>2026-04-18T05:43:00Z</time></trkpt><trkpt lat="43.30315900888294" lon="10.501812914569555"><ele>3.0</ele><time>2026-04-18T05:43:04Z</time></trkpt><trkpt lat="43.303118843676856" lon="10.501738894650472"><ele>2.9999999999999996</ele><time>2026-04-18T05:43:08Z</time></trkpt><trkpt lat="43.30307445365991" lon="10.501664357310608"><ele>3.0</ele><time>2026-04-18T05:43:13Z</time></trkpt><trkpt lat="43.30302795364125" lon="10.501591628848189"><ele>2.9999999999999996</ele><time>2026-04-18T05:43:18Z</time></trkpt><trkpt lat="43.30298518228362" lon="10.501506727477489"><ele>3.0</ele><time>2026-04-18T05:43:23Z</time></trkpt><trkpt lat="43.30295855859492" lon="10.501412186170532"><ele>3.0</ele><time>2026-04-18T05:43:27Z</time></trkpt><trkpt lat="43.302928200987516" lon="10.50132043204123"><ele>3.0</ele><time>2026-04-18T05:43:31Z</time></trkpt><trkpt lat="43.302887509271756" lon="10.501230954026049"><ele>3.0</ele><time>2026-04-18T05:43:36Z</time></trkpt><trkpt lat="43.30285750288756" lon="10.501146381240854"><ele>2.9999999999999996</ele><time>2026-04-18T05:43:40Z</time></trkpt><trkpt lat="43.30282199171277" lon="10.50106475140984"><ele>3.0</ele><time>2026-04-18T05:43:44Z</time></trkpt><trkpt lat="43.302788236054745" lon="10.500989070997665"><ele>3.1428571428571423</ele><time>2026-04-18T05:43:48Z</time></trkpt><trkpt lat="43.30275517751777" lon="10.50091434293757"><ele>3.2857142857142856</ele><time>2026-04-18T05:43:53Z</time></trkpt><trkpt lat="43.30270368700452" lon="10.500845554914997"><ele>3.4285714285714284</ele><time>2026-04-18T05:43:58Z</time></trkpt><trkpt lat="43.30266024715258" lon="10.500764820623619"><ele>3.571428571428571</ele><time>2026-04-18T05:44:03Z</time></trkpt><trkpt lat="43.30262136727965" lon="10.500669965552804"><ele>3.714285714285714</ele><time>2026-04-18T05:44:08Z</time></trkpt><trkpt lat="43.30258683301547" lon="10.50059737054273"><ele>3.8571428571428568</ele><time>2026-04-18T05:44:13Z</time></trkpt><trkpt lat="43.3025407359252" lon="10.500523757612692"><ele>4.0</ele><time>2026-04-18T05:44:18Z</time></trkpt><trkpt lat="43.30248736662907" lon="10.500468001194251"><ele>4.0</ele><time>2026-04-18T05:44:22Z</time></trkpt><trkpt lat="43.30244884223445" lon="10.500396408463441"><ele>3.9999999999999996</ele><time>2026-04-18T05:44:27Z</time></trkpt><trkpt lat="43.30239512047929" lon="10.50032784200844"><ele>4.0</ele><time>2026-04-18T05:44:34Z</time></trkpt><trkpt lat="43.30236016825643" lon="10.500242909242584"><ele>4.0</ele><time>2026-04-18T05:44:38Z</time></trkpt><trkpt lat="43.3023312435463" lon="10.500151743527898"><ele>3.9999999999999996</ele><time>2026-04-18T05:44:42Z</time></trkpt><trkpt lat="43.30229831799947" lon="10.500071540962804"><ele>4.0</ele><time>2026-04-18T05:44:46Z</time></trkpt><trkpt lat="43.30227276364638" lon="10.499983113552606"><ele>4.0</ele><time>2026-04-18T05:44:50Z</time></trkpt><trkpt lat="43.302239955668114" lon="10.49989515881568"><ele>4.0</ele><time>2026-04-18T05:44:54Z</time></trkpt><trkpt lat="43.30221569104331" lon="10.499810450870182"><ele>3.9999999999999996</ele><time>2026-04-18T05:45:00Z</time></trkpt><trkpt lat="43.302171881965165" lon="10.499718120275602"><ele>4.0</ele><time>2026-04-18T05:45:05Z</time></trkpt><trkpt lat="43.30213139266708" lon="10.499647829131797"><ele>4.0</ele><time>2026-04-18T05:45:10Z</time></trkpt><trkpt lat="43.30209308788303" lon="10.499575574077214"><ele>3.9999999999999996</ele><time>2026-04-18T05:45:14Z</time></trkpt><trkpt lat="43.302050667324856" lon="10.49949959472884"><ele>4.0</ele><time>2026-04-18T05:45:18Z</time></trkpt><trkpt lat="43.302012033553375" lon="10.499430877538854"><ele>4.0</ele><time>2026-04-18T05:45:22Z</time></trkpt><trkpt lat="43.30196935825282" lon="10.49936132501834"><ele>4.0</ele><time>2026-04-18T05:45:26Z</time></trkpt><trkpt lat="43.3019352894538" lon="10.4992846902212"><ele>3.9999999999999996</ele><time>2026-04-18T05:45:30Z</time></trkpt><trkpt lat="43.30189089931058" lon="10.499213316374183"><ele>4.0</ele><time>2026-04-18T05:45:34Z</time></trkpt><trkpt lat="43.301839310160105" lon="10.499142445690786"><ele>4.0</ele><time>2026-04-18T05:45:39Z</time></trkpt><trkpt lat="43.30179429462333" lon="10.4990682955474"><ele>3.9999999999999996</ele><time>2026-04-18T05:45:44Z</time></trkpt><trkpt lat="43.3017511207262" lon="10.498988310652297"><ele>4.0</ele><time>2026-04-18T05:45:48Z</time></trkpt><trkpt lat="43.30174275362373" lon="10.498890751564794"><ele>4.0</ele><time>2026-04-18T05:45:53Z</time></trkpt><trkpt lat="43.30175608473002" lon="10.498801205925815"><ele>4.0</ele><time>2026-04-18T05:45:59Z</time></trkpt><trkpt lat="43.301697132653096" lon="10.498725671587112"><ele>3.9999999999999996</ele><time>2026-04-18T05:46:04Z</time></trkpt><trkpt lat="43.301642672357886" lon="10.498647326303729"><ele>4.0</ele><time>2026-04-18T05:46:08Z</time></trkpt><trkpt lat="43.301610415957995" lon="10.498564397974798"><ele>4.0</ele><time>2026-04-18T05:46:12Z</time></trkpt><trkpt lat="43.30158290366906" lon="10.498484140321029"><ele>3.9999999999999996</ele><time>2026-04-18T05:46:17Z</time></trkpt><trkpt lat="43.301554914507015" lon="10.498403771595674"><ele>4.0</ele><time>2026-04-18T05:46:21Z</time></trkpt><trkpt lat="43.30151163764521" lon="10.49831224133882"><ele>4.0</ele><time>2026-04-18T05:46:25Z</time></trkpt><trkpt lat="43.301473396176775" lon="10.4982266332644"><ele>4.0</ele><time>2026-04-18T05:46:29Z</time></trkpt><trkpt lat="43.301432225209474" lon="10.498148315887667"><ele>3.9999999999999996</ele><time>2026-04-18T05:46:33Z</time></trkpt><trkpt lat="43.30138637486496" lon="10.49806651536097"><ele>4.0</ele><time>2026-04-18T05:46:38Z</time></trkpt><trkpt lat="43.3013422860808" lon="10.4980027932748"><ele>4.0</ele><time>2026-04-18T05:46:42Z</time></trkpt><trkpt lat="43.30130375969469" lon="10.497923732202093"><ele>3.9999999999999996</ele><time>2026-04-18T05:46:46Z</time></trkpt><trkpt lat="43.30126764219975" lon="10.497851809210614"><ele>4.0</ele><time>2026-04-18T05:46:51Z</time></trkpt><trkpt lat="43.30122577541966" lon="10.49776032455729"><ele>4.0</ele><time>2026-04-18T05:46:56Z</time></trkpt><trkpt lat="43.30119330409461" lon="10.497678716665908"><ele>3.8571428571428568</ele><time>2026-04-18T05:47:00Z</time></trkpt><trkpt lat="43.30115365407681" lon="10.497597968110608"><ele>3.714285714285714</ele><time>2026-04-18T05:47:05Z</time></trkpt><trkpt lat="43.30111289823689" lon="10.497501825203347"><ele>3.571428571428571</ele><time>2026-04-18T05:47:10Z</time></trkpt><trkpt lat="43.30107416035691" lon="10.497424963439778"><ele>3.4285714285714284</ele><time>2026-04-18T05:47:14Z</time></trkpt><trkpt lat="43.30103968386471" lon="10.497350257547094"><ele>3.2857142857142856</ele><time>2026-04-18T05:47:18Z</time></trkpt><trkpt lat="43.300974646583974" lon="10.49732036102161"><ele>3.1428571428571423</ele><time>2026-04-18T05:47:25Z</time></trkpt><trkpt lat="43.30091644163197" lon="10.497255486452378"><ele>3.0</ele><time>2026-04-18T05:47:32Z</time></trkpt><trkpt lat="43.300872848909954" lon="10.497177081737616"><ele>2.9999999999999996</ele><time>2026-04-18T05:47:38Z</time></trkpt><trkpt lat="43.30084214174448" lon="10.497095807784087"><ele>3.0</ele><time>2026-04-18T05:47:42Z</time></trkpt><trkpt lat="43.30083034069045" lon="10.497006328942362"><ele>3.0</ele><time>2026-04-18T05:47:45Z</time></trkpt><trkpt lat="43.3008146097497" lon="10.496921205781284"><ele>3.0</ele><time>2026-04-18T05:47:48Z</time></trkpt><trkpt lat="43.30076506152483" lon="10.49685740175672"><ele>3.0</ele><time>2026-04-18T05:47:55Z</time></trkpt><trkpt lat="43.30068937030162" lon="10.496839570318738"><ele>2.9999999999999996</ele><time>2026-04-18T05:48:03Z</time></trkpt><trkpt lat="43.30070076487874" lon="10.49674669114241"><ele>3.0</ele><time>2026-04-18T05:48:13Z</time></trkpt><trkpt lat="43.30071214531367" lon="10.496654741558272"><ele>2.9999999999999996</ele><time>2026-04-18T05:48:18Z</time></trkpt><trkpt lat="43.30068608659238" lon="10.496573104655763"><ele>3.0</ele><time>2026-04-18T05:48:23Z</time></trkpt><trkpt lat="43.30064088993009" lon="10.49649297306978"><ele>3.0</ele><time>2026-04-18T05:48:28Z</time></trkpt><trkpt lat="43.30060353106097" lon="10.49641676833412"><ele>3.0</ele><time>2026-04-18T05:48:32Z</time></trkpt><trkpt lat="43.30055417551621" lon="10.496349260079722"><ele>3.0</ele><time>2026-04-18T05:48:37Z</time></trkpt><trkpt lat="43.3005064540676" lon="10.496275039406576"><ele>2.9999999999999996</ele><time>2026-04-18T05:48:42Z</time></trkpt><trkpt lat="43.300474500564654" lon="10.496198172518994"><ele>3.0</ele><time>2026-04-18T05:48:47Z</time></trkpt><trkpt lat="43.30042667338039" lon="10.496111796323696"><ele>2.9999999999999996</ele><time>2026-04-18T05:48:52Z</time></trkpt><trkpt lat="43.30039661906238" lon="10.496033848733259"><ele>3.0</ele><time>2026-04-18T05:48:56Z</time></trkpt><trkpt lat="43.30035854766103" lon="10.495949397439697"><ele>3.0</ele><time>2026-04-18T05:49:00Z</time></trkpt><trkpt lat="43.300334589677654" lon="10.495863714578432"><ele>3.0</ele><time>2026-04-18T05:49:04Z</time></trkpt><trkpt lat="43.30028892200179" lon="10.495780250645403"><ele>3.0</ele><time>2026-04-18T05:49:09Z</time></trkpt><trkpt lat="43.300252239822676" lon="10.495699357100959"><ele>2.9999999999999996</ele><time>2026-04-18T05:49:13Z</time></trkpt><trkpt lat="43.30020766376688" lon="10.495618779594485"><ele>3.0</ele><time>2026-04-18T05:49:18Z</time></trkpt><trkpt lat="43.30015392074761" lon="10.495544071120753"><ele>2.9999999999999996</ele><time>2026-04-18T05:49:23Z</time></trkpt><trkpt lat="43.30011169598387" lon="10.49546892681305"><ele>3.0</ele><time>2026-04-18T05:49:28Z</time></trkpt><trkpt lat="43.300082314729714" lon="10.495380352136115"><ele>3.0</ele><time>2026-04-18T05:49:32Z</time></trkpt><trkpt lat="43.300029709849746" lon="10.495301294680432"><ele>3.0</ele><time>2026-04-18T05:49:38Z</time></trkpt><trkpt lat="43.29998296202212" lon="10.495237087217266"><ele>3.0</ele><time>2026-04-18T05:49:42Z</time></trkpt><trkpt lat="43.299924368341664" lon="10.495181333298971"><ele>2.9999999999999996</ele><time>2026-04-18T05:49:47Z</time></trkpt><trkpt lat="43.299881976883796" lon="10.49510867178994"><ele>3.0</ele><time>2026-04-18T05:49:51Z</time></trkpt><trkpt lat="43.29983657315687" lon="10.495030532148355"><ele>2.9999999999999996</ele><time>2026-04-18T05:49:55Z</time></trkpt><trkpt lat="43.29982476980952" lon="10.494935079701232"><ele>3.0</ele><time>2026-04-18T05:49:59Z</time></trkpt><trkpt lat="43.29981497433697" lon="10.494825731170225"><ele>3.0</ele><time>2026-04-18T05:50:03Z</time></trkpt><trkpt lat="43.299798662819235" lon="10.494727433647446"><ele>3.0</ele><time>2026-04-18T05:50:08Z</time></trkpt><trkpt lat="43.29976370505468" lon="10.494653139310735"><ele>3.0</ele><time>2026-04-18T05:50:13Z</time></trkpt><trkpt lat="43.29972900642606" lon="10.494579904440018"><ele>2.9999999999999996</ele><time>2026-04-18T05:50:17Z</time></trkpt><trkpt lat="43.29968949822824" lon="10.494506601454018"><ele>3.0</ele><time>2026-04-18T05:50:21Z</time></trkpt><trkpt lat="43.299644148808405" lon="10.494422215087601"><ele>3.2857142857142856</ele><time>2026-04-18T05:50:26Z</time></trkpt><trkpt lat="43.29960121934685" lon="10.494334151154039"><ele>3.571428571428571</ele><time>2026-04-18T05:50:31Z</time></trkpt><trkpt lat="43.29955744581797" lon="10.49424865607981"><ele>3.8571428571428568</ele><time>2026-04-18T05:50:36Z</time></trkpt><trkpt lat="43.29952485191639" lon="10.494169826281357"><ele>4.142857142857142</ele><time>2026-04-18T05:50:40Z</time></trkpt><trkpt lat="43.29948695232303" lon="10.494072380598853"><ele>4.428571428571429</ele><time>2026-04-18T05:50:45Z</time></trkpt><trkpt lat="43.29944463681117" lon="10.494003966405332"><ele>4.714285714285714</ele><time>2026-04-18T05:50:49Z</time></trkpt><trkpt lat="43.29937297205478" lon="10.493945852366817"><ele>5.0</ele><time>2026-04-18T05:50:54Z</time></trkpt><trkpt lat="43.299338279472785" lon="10.4938611053217"><ele>5.0</ele><time>2026-04-18T05:51:02Z</time></trkpt><trkpt lat="43.29932702418299" lon="10.49377106367382"><ele>5.0</ele><time>2026-04-18T05:51:07Z</time></trkpt><trkpt lat="43.299339556507746" lon="10.493685402908202"><ele>5.0</ele><time>2026-04-18T05:51:13Z</time></trkpt><trkpt lat="43.299320057310695" lon="10.493592275943103"><ele>5.0</ele><time>2026-04-18T05:51:20Z</time></trkpt><trkpt lat="43.2992878407667" lon="10.493510663132708"><ele>5.0</ele><time>2026-04-18T05:51:25Z</time></trkpt><trkpt lat="43.29924660991691" lon="10.4934394041234"><ele>5.0</ele><time>2026-04-18T05:51:29Z</time></trkpt><trkpt lat="43.299208001420254" lon="10.493360314459126"><ele>5.0</ele><time>2026-04-18T05:51:33Z</time></trkpt><trkpt lat="43.2991722120577" lon="10.49327852758184"><ele>5.0</ele><time>2026-04-18T05:51:37Z</time></trkpt><trkpt lat="43.29913040573544" lon="10.49320450028815"><ele>5.0</ele><time>2026-04-18T05:51:41Z</time></trkpt><trkpt lat="43.29908730995428" lon="10.493132502288363"><ele>5.0</ele><time>2026-04-18T05:51:45Z</time></trkpt><trkpt lat="43.29906220670145" lon="10.49305142452079"><ele>5.0</ele><time>2026-04-18T05:51:49Z</time></trkpt><trkpt lat="43.299047644923874" lon="10.492956411411551"><ele>5.0</ele><time>2026-04-18T05:51:53Z</time></trkpt><trkpt lat="43.29903796173791" lon="10.492870496419785"><ele>5.0</ele><time>2026-04-18T05:51:57Z</time></trkpt><trkpt lat="43.29903519490896" lon="10.492774697928288"><ele>5.0</ele><time>2026-04-18T05:52:01Z</time></trkpt><trkpt lat="43.299038033654675" lon="10.492683770757504"><ele>4.714285714285714</ele><time>2026-04-18T05:52:05Z</time></trkpt><trkpt lat="43.2990536704047" lon="10.49259005775162"><ele>4.428571428571429</ele><time>2026-04-18T05:52:10Z</time></trkpt><trkpt lat="43.299056327089644" lon="10.49250033501539"><ele>4.142857142857142</ele><time>2026-04-18T05:52:16Z</time></trkpt><trkpt lat="43.29909041020942" lon="10.49241625027254"><ele>3.8571428571428568</ele><time>2026-04-18T05:52:21Z</time></trkpt><trkpt lat="43.299143182958574" lon="10.492355826170208"><ele>3.571428571428571</ele><time>2026-04-18T05:52:25Z</time></trkpt><trkpt lat="43.29920970088665" lon="10.49230337475111"><ele>3.2857142857142856</ele><time>2026-04-18T05:52:29Z</time></trkpt><trkpt lat="43.29925862274815" lon="10.492225250050362"><ele>3.0</ele><time>2026-04-18T05:52:34Z</time></trkpt><trkpt lat="43.29931863360462" lon="10.4921569833318"><ele>2.714285714285714</ele><time>2026-04-18T05:52:39Z</time></trkpt><trkpt lat="43.29935837017013" lon="10.492081576566488"><ele>2.4285714285714284</ele><time>2026-04-18T05:52:44Z</time></trkpt><trkpt lat="43.29942123789622" lon="10.492021825326429"><ele>2.142857142857143</ele><time>2026-04-18T05:52:49Z</time></trkpt><trkpt lat="43.29946751526858" lon="10.491958675935994"><ele>1.857142857142857</ele><time>2026-04-18T05:52:54Z</time></trkpt><trkpt lat="43.29949134293305" lon="10.49187723565939"><ele>1.5714285714285712</ele><time>2026-04-18T05:52:59Z</time></trkpt><trkpt lat="43.29953205684727" lon="10.49180858050515"><ele>1.2857142857142856</ele><time>2026-04-18T05:53:04Z</time></trkpt><trkpt lat="43.29958216152922" lon="10.491751664054718"><ele>1.0</ele><time>2026-04-18T05:53:08Z</time></trkpt><trkpt lat="43.29964648967482" lon="10.491699049972656"><ele>1.0</ele><time>2026-04-18T05:53:12Z</time></trkpt><trkpt lat="43.29968919610055" lon="10.491625913637245"><ele>0.9999999999999999</ele><time>2026-04-18T05:53:17Z</time></trkpt><trkpt lat="43.299735428776835" lon="10.491558527287989"><ele>1.0</ele><time>2026-04-18T05:53:22Z</time></trkpt><trkpt lat="43.299794081181645" lon="10.491502225979056"><ele>1.0</ele><time>2026-04-18T05:53:28Z</time></trkpt><trkpt lat="43.2998468983227" lon="10.491432205716483"><ele>0.9999999999999999</ele><time>2026-04-18T05:53:33Z</time></trkpt><trkpt lat="43.29990348203289" lon="10.491364207473788"><ele>1.0</ele><time>2026-04-18T05:53:38Z</time></trkpt><trkpt lat="43.299939028919695" lon="10.491277338089255"><ele>1.0</ele><time>2026-04-18T05:53:43Z</time></trkpt><trkpt lat="43.30000387667519" lon="10.491219250029442"><ele>1.1428571428571428</ele><time>2026-04-18T05:53:47Z</time></trkpt><trkpt lat="43.300059147764955" lon="10.491157662891526"><ele>1.2857142857142856</ele><time>2026-04-18T05:53:51Z</time></trkpt><trkpt lat="43.300113156634346" lon="10.49110929621493"><ele>1.4285714285714284</ele><time>2026-04-18T05:53:55Z</time></trkpt><trkpt lat="43.3001842885529" lon="10.491094362950703"><ele>1.5714285714285714</ele><time>2026-04-18T05:53:59Z</time></trkpt><trkpt lat="43.30025504557081" lon="10.49112818019516"><ele>1.714285714285714</ele><time>2026-04-18T05:54:04Z</time></trkpt><trkpt lat="43.30031242969078" lon="10.49117055171983"><ele>1.857142857142857</ele><time>2026-04-18T05:54:09Z</time></trkpt><trkpt lat="43.30037602311199" lon="10.491230579014347"><ele>2.0</ele><time>2026-04-18T05:54:14Z</time></trkpt><trkpt lat="43.30043942055402" lon="10.491254852143642"><ele>2.0</ele><time>2026-04-18T05:54:18Z</time></trkpt><trkpt lat="43.300506312483456" lon="10.491251973218535"><ele>1.9999999999999998</ele><time>2026-04-18T05:54:22Z</time></trkpt><trkpt lat="43.30056825749146" lon="10.491276401228435"><ele>2.0</ele><time>2026-04-18T05:54:26Z</time></trkpt><trkpt lat="43.30063787703917" lon="10.491307143251479"><ele>2.0</ele><time>2026-04-18T05:54:31Z</time></trkpt><trkpt lat="43.30071368679733" lon="10.491300195614816"><ele>1.9999999999999998</ele><time>2026-04-18T05:54:36Z</time></trkpt><trkpt lat="43.300782945304356" lon="10.49126856830827"><ele>2.0</ele><time>2026-04-18T05:54:41Z</time></trkpt><trkpt lat="43.30085177625707" lon="10.491233633922977"><ele>2.0</ele><time>2026-04-18T05:54:46Z</time></trkpt><trkpt lat="43.300915633497716" lon="10.491185668522949"><ele>2.142857142857143</ele><time>2026-04-18T05:54:51Z</time></trkpt><trkpt lat="43.30097999563632" lon="10.491174047065298"><ele>2.2857142857142856</ele><time>2026-04-18T05:54:57Z</time></trkpt><trkpt lat="43.301038922195445" lon="10.491227654594864"><ele>2.4285714285714284</ele><time>2026-04-18T05:55:02Z</time></trkpt><trkpt lat="43.30109822398926" lon="10.491294311772567"><ele>2.571428571428571</ele><time>2026-04-18T05:55:07Z</time></trkpt><trkpt lat="43.30115864909294" lon="10.491373671764917"><ele>2.7142857142857144</ele><time>2026-04-18T05:55:12Z</time></trkpt><trkpt lat="43.30120955626261" lon="10.491436742110405"><ele>2.8571428571428568</ele><time>2026-04-18T05:55:17Z</time></trkpt><trkpt lat="43.301257784101274" lon="10.49151616793973"><ele>3.0</ele><time>2026-04-18T05:55:22Z</time></trkpt><trkpt lat="43.301303964465426" lon="10.491602851797696"><ele>2.9999999999999996</ele><time>2026-04-18T05:55:27Z</time></trkpt><trkpt lat="43.30134478943503" lon="10.491679720684173"><ele>3.0</ele><time>2026-04-18T05:55:32Z</time></trkpt><trkpt lat="43.30139124147201" lon="10.491764453318686"><ele>3.0</ele><time>2026-04-18T05:55:38Z</time></trkpt><trkpt lat="43.30143573304439" lon="10.491852569036931"><ele>3.0</ele><time>2026-04-18T05:55:43Z</time></trkpt><trkpt lat="43.30148481933838" lon="10.491930617965137"><ele>3.0</ele><time>2026-04-18T05:55:48Z</time></trkpt><trkpt lat="43.30152244943538" lon="10.492003002889927"><ele>2.9999999999999996</ele><time>2026-04-18T05:55:53Z</time></trkpt><trkpt lat="43.3015789628641" lon="10.492056879389882"><ele>3.0</ele><time>2026-04-18T05:55:59Z</time></trkpt><trkpt lat="43.30163978110525" lon="10.492106401548654"><ele>2.9999999999999996</ele><time>2026-04-18T05:56:04Z</time></trkpt><trkpt lat="43.301691587635396" lon="10.492165001445176"><ele>3.0</ele><time>2026-04-18T05:56:09Z</time></trkpt><trkpt lat="43.30173836502157" lon="10.49222948214632"><ele>3.0</ele><time>2026-04-18T05:56:14Z</time></trkpt><trkpt lat="43.3017816852153" lon="10.492293469221192"><ele>3.0</ele><time>2026-04-18T05:56:19Z</time></trkpt><trkpt lat="43.30182429388269" lon="10.492359671172618"><ele>3.0</ele><time>2026-04-18T05:56:24Z</time></trkpt><trkpt lat="43.30186892426004" lon="10.49242389356292"><ele>2.9999999999999996</ele><time>2026-04-18T05:56:28Z</time></trkpt><trkpt lat="43.301890575788285" lon="10.492508196603056"><ele>3.0</ele><time>2026-04-18T05:56:32Z</time></trkpt><trkpt lat="43.30192726508802" lon="10.492596942087166"><ele>2.9999999999999996</ele><time>2026-04-18T05:56:38Z</time></trkpt><trkpt lat="43.30196413131703" lon="10.492683718989424"><ele>3.0</ele><time>2026-04-18T05:56:43Z</time></trkpt><trkpt lat="43.30200082392623" lon="10.492772127861006"><ele>3.0</ele><time>2026-04-18T05:56:47Z</time></trkpt><trkpt lat="43.30204804582069" lon="10.492852558581026"><ele>3.0</ele><time>2026-04-18T05:56:52Z</time></trkpt><trkpt lat="43.302102468353894" lon="10.492928512428682"><ele>3.0</ele><time>2026-04-18T05:56:58Z</time></trkpt><trkpt lat="43.30215685869752" lon="10.49301009849936"><ele>2.9999999999999996</ele><time>2026-04-18T05:57:03Z</time></trkpt><trkpt lat="43.30219692776858" lon="10.493086548407133"><ele>3.0</ele><time>2026-04-18T05:57:08Z</time></trkpt><trkpt lat="43.30223373790009" lon="10.493175446107683"><ele>2.8571428571428568</ele><time>2026-04-18T05:57:13Z</time></trkpt><trkpt lat="43.30226352871568" lon="10.493261714647977"><ele>2.7142857142857144</ele><time>2026-04-18T05:57:17Z</time></trkpt><trkpt lat="43.302300211546196" lon="10.493359052435334"><ele>2.571428571428571</ele><time>2026-04-18T05:57:22Z</time></trkpt><trkpt lat="43.30233792859187" lon="10.493454390072838"><ele>2.4285714285714284</ele><time>2026-04-18T05:57:27Z</time></trkpt><trkpt lat="43.30237935119317" lon="10.493536449791177"><ele>2.2857142857142856</ele><time>2026-04-18T05:57:32Z</time></trkpt><trkpt lat="43.30241384464737" lon="10.493614174243087"><ele>2.142857142857143</ele><time>2026-04-18T05:57:37Z</time></trkpt><trkpt lat="43.302453171808175" lon="10.493690320878862"><ele>2.0</ele><time>2026-04-18T05:57:42Z</time></trkpt><trkpt lat="43.30250825920783" lon="10.493732299130276"><ele>2.0</ele><time>2026-04-18T05:57:48Z</time></trkpt><trkpt lat="43.302539897964955" lon="10.493810874577587"><ele>1.9999999999999998</ele><time>2026-04-18T05:57:53Z</time></trkpt><trkpt lat="43.30257875725805" lon="10.493896057956414"><ele>2.0</ele><time>2026-04-18T05:57:58Z</time></trkpt><trkpt lat="43.302617366463316" lon="10.49396971839383"><ele>2.0</ele><time>2026-04-18T05:58:03Z</time></trkpt><trkpt lat="43.302659270733905" lon="10.494051603455782"><ele>1.9999999999999998</ele><time>2026-04-18T05:58:08Z</time></trkpt><trkpt lat="43.30271385986898" lon="10.494106453255217"><ele>2.0</ele><time>2026-04-18T05:58:13Z</time></trkpt><trkpt lat="43.30277763001938" lon="10.494130061936316"><ele>2.0</ele><time>2026-04-18T05:58:19Z</time></trkpt><trkpt lat="43.30284710184423" lon="10.494158899131033"><ele>2.0</ele><time>2026-04-18T05:58:24Z</time></trkpt><trkpt lat="43.30291087201602" lon="10.4941322765185"><ele>1.9999999999999998</ele><time>2026-04-18T05:58:29Z</time></trkpt><trkpt lat="43.30297828430736" lon="10.494092900391994"><ele>2.0</ele><time>2026-04-18T05:58:35Z</time></trkpt><trkpt lat="43.30304092116422" lon="10.49404678322925"><ele>2.0</ele><time>2026-04-18T05:58:40Z</time></trkpt><trkpt lat="43.303102373134344" lon="10.493998220307718"><ele>1.9999999999999998</ele><time>2026-04-18T05:58:45Z</time></trkpt><trkpt lat="43.30315988296014" lon="10.493955928592287"><ele>2.0</ele><time>2026-04-18T05:58:49Z</time></trkpt><trkpt lat="43.303227071311504" lon="10.493905763951368"><ele>2.0</ele><time>2026-04-18T05:58:54Z</time></trkpt><trkpt lat="43.30328315283162" lon="10.493959575048265"><ele>2.0</ele><time>2026-04-18T05:59:02Z</time></trkpt><trkpt lat="43.30331026568667" lon="10.494047424061888"><ele>1.9999999999999998</ele><time>2026-04-18T05:59:07Z</time></trkpt><trkpt lat="43.30333461411758" lon="10.494134653877996"><ele>2.0</ele><time>2026-04-18T05:59:12Z</time></trkpt><trkpt lat="43.3033568428323" lon="10.494222299809193"><ele>2.0</ele><time>2026-04-18T05:59:17Z</time></trkpt><trkpt lat="43.30338077582046" lon="10.494307231211447"><ele>1.9999999999999998</ele><time>2026-04-18T05:59:22Z</time></trkpt><trkpt lat="43.303401844083695" lon="10.494402810477387"><ele>2.0</ele><time>2026-04-18T05:59:27Z</time></trkpt><trkpt lat="43.30342533061795" lon="10.494503213315843"><ele>2.0</ele><time>2026-04-18T05:59:32Z</time></trkpt><trkpt lat="43.30344744768348" lon="10.494598680144536"><ele>2.142857142857143</ele><time>2026-04-18T05:59:37Z</time></trkpt><trkpt lat="43.30346675442615" lon="10.494700153114199"><ele>2.2857142857142856</ele><time>2026-04-18T05:59:42Z</time></trkpt><trkpt lat="43.303490816616375" lon="10.494795120648032"><ele>2.4285714285714284</ele><time>2026-04-18T05:59:47Z</time></trkpt><trkpt lat="43.30351130684906" lon="10.49489367657217"><ele>2.571428571428571</ele><time>2026-04-18T05:59:52Z</time></trkpt><trkpt lat="43.30353051931365" lon="10.494976963377761"><ele>2.7142857142857144</ele><time>2026-04-18T05:59:56Z</time></trkpt><trkpt lat="43.3035540812742" lon="10.495058184017795"><ele>2.8571428571428568</ele><time>2026-04-18T06:00:01Z</time></trkpt><trkpt lat="43.303577800062435" lon="10.495145508445402"><ele>3.0</ele><time>2026-04-18T06:00:06Z</time></trkpt><trkpt lat="43.30360884086928" lon="10.495233715751624"><ele>2.9999999999999996</ele><time>2026-04-18T06:00:11Z</time></trkpt><trkpt lat="43.303638555476496" lon="10.49532515630656"><ele>3.0</ele><time>2026-04-18T06:00:16Z</time></trkpt><trkpt lat="43.303670524040655" lon="10.49540656085019"><ele>3.0</ele><time>2026-04-18T06:00:21Z</time></trkpt><trkpt lat="43.30369846396566" lon="10.495484724905364"><ele>3.0</ele><time>2026-04-18T06:00:25Z</time></trkpt><trkpt lat="43.30373706256446" lon="10.495572530905427"><ele>3.0</ele><time>2026-04-18T06:00:30Z</time></trkpt><trkpt lat="43.303775189600216" lon="10.495655659274242"><ele>2.9999999999999996</ele><time>2026-04-18T06:00:35Z</time></trkpt><trkpt lat="43.3038162544453" lon="10.495746035754461"><ele>3.0</ele><time>2026-04-18T06:00:40Z</time></trkpt><trkpt lat="43.303857119406544" lon="10.495834485405894"><ele>3.1428571428571423</ele><time>2026-04-18T06:00:45Z</time></trkpt><trkpt lat="43.30389067214313" lon="10.495910100179204"><ele>3.2857142857142856</ele><time>2026-04-18T06:00:49Z</time></trkpt><trkpt lat="43.303934934443426" lon="10.495998365252275"><ele>3.4285714285714284</ele><time>2026-04-18T06:00:54Z</time></trkpt><trkpt lat="43.30397872653814" lon="10.496085074441183"><ele>3.571428571428571</ele><time>2026-04-18T06:00:59Z</time></trkpt><trkpt lat="43.30402006166768" lon="10.49616084100313"><ele>3.714285714285714</ele><time>2026-04-18T06:01:04Z</time></trkpt><trkpt lat="43.30406279736433" lon="10.496241442921997"><ele>3.8571428571428568</ele><time>2026-04-18T06:01:09Z</time></trkpt><trkpt lat="43.30410783289673" lon="10.496321683704421"><ele>4.0</ele><time>2026-04-18T06:01:14Z</time></trkpt><trkpt lat="43.304160404305065" lon="10.496401140980543"><ele>4.142857142857142</ele><time>2026-04-18T06:01:19Z</time></trkpt><trkpt lat="43.30421029246503" lon="10.496483977089383"><ele>4.285714285714286</ele><time>2026-04-18T06:01:24Z</time></trkpt><trkpt lat="43.30425796743906" lon="10.496559773821732"><ele>4.428571428571429</ele><time>2026-04-18T06:01:29Z</time></trkpt><trkpt lat="43.30431042500571" lon="10.496642863131562"><ele>4.571428571428571</ele><time>2026-04-18T06:01:34Z</time></trkpt><trkpt lat="43.304355696185695" lon="10.49671510089323"><ele>4.714285714285714</ele><time>2026-04-18T06:01:39Z</time></trkpt><trkpt lat="43.304411178919196" lon="10.49678721887569"><ele>4.857142857142857</ele><time>2026-04-18T06:01:44Z</time></trkpt><trkpt lat="43.30446004579982" lon="10.496853744254851"><ele>5.0</ele><time>2026-04-18T06:01:49Z</time></trkpt><trkpt lat="43.30451505941629" lon="10.49692768730842"><ele>5.0</ele><time>2026-04-18T06:01:54Z</time></trkpt><trkpt lat="43.30456757292947" lon="10.497004745883826"><ele>5.0</ele><time>2026-04-18T06:01:59Z</time></trkpt><trkpt lat="43.30462304747899" lon="10.497074268825267"><ele>5.0</ele><time>2026-04-18T06:02:04Z</time></trkpt><trkpt lat="43.30468072098807" lon="10.497145375624912"><ele>5.0</ele><time>2026-04-18T06:02:09Z</time></trkpt><trkpt lat="43.30474074560381" lon="10.497210987244074"><ele>5.0</ele><time>2026-04-18T06:02:14Z</time></trkpt><trkpt lat="43.304802348918365" lon="10.497270487624055"><ele>5.0</ele><time>2026-04-18T06:02:19Z</time></trkpt><trkpt lat="43.30486242801419" lon="10.497338456898705"><ele>4.571428571428571</ele><time>2026-04-18T06:02:24Z</time></trkpt><trkpt lat="43.30492272567459" lon="10.497399540892188"><ele>4.142857142857143</ele><time>2026-04-18T06:02:29Z</time></trkpt><trkpt lat="43.30498050349544" lon="10.49745525533557"><ele>3.7142857142857144</ele><time>2026-04-18T06:02:34Z</time></trkpt><trkpt lat="43.305042222047966" lon="10.49751067451746"><ele>3.2857142857142856</ele><time>2026-04-18T06:02:39Z</time></trkpt><trkpt lat="43.305106357176044" lon="10.497570339614322"><ele>2.8571428571428568</ele><time>2026-04-18T06:02:44Z</time></trkpt><trkpt lat="43.30516949606648" lon="10.497623353956863"><ele>2.4285714285714284</ele><time>2026-04-18T06:02:49Z</time></trkpt><trkpt lat="43.30522690238868" lon="10.49767832326276"><ele>2.0</ele><time>2026-04-18T06:02:54Z</time></trkpt><trkpt lat="43.305290110507585" lon="10.497729081120603"><ele>2.0</ele><time>2026-04-18T06:03:00Z</time></trkpt><trkpt lat="43.305354870305464" lon="10.497789724426212"><ele>1.9999999999999998</ele><time>2026-04-18T06:03:05Z</time></trkpt><trkpt lat="43.30541929800131" lon="10.497847287531059"><ele>2.0</ele><time>2026-04-18T06:03:10Z</time></trkpt><trkpt lat="43.30548348447025" lon="10.497905778138195"><ele>2.0</ele><time>2026-04-18T06:03:15Z</time></trkpt><trkpt lat="43.30554421580497" lon="10.497959586081482"><ele>1.9999999999999998</ele><time>2026-04-18T06:03:20Z</time></trkpt><trkpt lat="43.30560768990935" lon="10.498012271813536"><ele>2.0</ele><time>2026-04-18T06:03:25Z</time></trkpt><trkpt lat="43.305665074853295" lon="10.498060354739051"><ele>2.0</ele><time>2026-04-18T06:03:30Z</time></trkpt><trkpt lat="43.30572302963201" lon="10.498113919098675"><ele>2.142857142857143</ele><time>2026-04-18T06:03:35Z</time></trkpt><trkpt lat="43.30578601724116" lon="10.498166294950632"><ele>2.2857142857142856</ele><time>2026-04-18T06:03:40Z</time></trkpt><trkpt lat="43.305849051106925" lon="10.498221713860373"><ele>2.4285714285714284</ele><time>2026-04-18T06:03:45Z</time></trkpt><trkpt lat="43.30590861827941" lon="10.498272834258598"><ele>2.571428571428571</ele><time>2026-04-18T06:03:50Z</time></trkpt><trkpt lat="43.3059683154659" lon="10.498323959356282"><ele>2.7142857142857144</ele><time>2026-04-18T06:03:55Z</time></trkpt><trkpt lat="43.30602309816769" lon="10.498375201266247"><ele>2.8571428571428568</ele><time>2026-04-18T06:04:00Z</time></trkpt><trkpt lat="43.30608134194263" lon="10.49842660373603"><ele>3.0</ele><time>2026-04-18T06:04:05Z</time></trkpt><trkpt lat="43.30614441184972" lon="10.498481741097587"><ele>3.0</ele><time>2026-04-18T06:04:10Z</time></trkpt><trkpt lat="43.30621103782082" lon="10.498541011260283"><ele>3.0</ele><time>2026-04-18T06:04:15Z</time></trkpt><trkpt lat="43.30627390878313" lon="10.498595723581643"><ele>3.0</ele><time>2026-04-18T06:04:20Z</time></trkpt><trkpt lat="43.30633964995595" lon="10.498653500515035"><ele>3.0</ele><time>2026-04-18T06:04:25Z</time></trkpt><trkpt lat="43.30640531677937" lon="10.498710434049807"><ele>3.0</ele><time>2026-04-18T06:04:30Z</time></trkpt><trkpt lat="43.30646835771234" lon="10.498766499714533"><ele>3.0</ele><time>2026-04-18T06:04:35Z</time></trkpt><trkpt lat="43.30653093199989" lon="10.498820214098798"><ele>2.714285714285714</ele><time>2026-04-18T06:04:40Z</time></trkpt><trkpt lat="43.306594151901166" lon="10.498873739074963"><ele>2.4285714285714284</ele><time>2026-04-18T06:04:45Z</time></trkpt><trkpt lat="43.30664815911387" lon="10.498919315294284"><ele>2.142857142857143</ele><time>2026-04-18T06:04:49Z</time></trkpt><trkpt lat="43.3067107376199" lon="10.49897311995358"><ele>1.857142857142857</ele><time>2026-04-18T06:04:54Z</time></trkpt><trkpt lat="43.30677446806765" lon="10.499024885591467"><ele>1.5714285714285712</ele><time>2026-04-18T06:04:59Z</time></trkpt><trkpt lat="43.306836505709825" lon="10.499080812952231"><ele>1.2857142857142856</ele><time>2026-04-18T06:05:04Z</time></trkpt><trkpt lat="43.30689702917738" lon="10.499131976337127"><ele>1.0</ele><time>2026-04-18T06:05:09Z</time></trkpt><trkpt lat="43.30695706965031" lon="10.499184230278297"><ele>1.0</ele><time>2026-04-18T06:05:14Z</time></trkpt><trkpt lat="43.30701236103259" lon="10.499227468617956"><ele>0.9999999999999999</ele><time>2026-04-18T06:05:19Z</time></trkpt><trkpt lat="43.307075222604624" lon="10.49925175730115"><ele>1.0</ele><time>2026-04-18T06:05:25Z</time></trkpt><trkpt lat="43.30713896363342" lon="10.499287301753867"><ele>1.0</ele><time>2026-04-18T06:05:30Z</time></trkpt><trkpt lat="43.30720904142914" lon="10.499338804279104"><ele>0.9999999999999999</ele><time>2026-04-18T06:05:36Z</time></trkpt><trkpt lat="43.30725750726311" lon="10.49941860380578"><ele>1.0</ele><time>2026-04-18T06:05:40Z</time></trkpt><trkpt lat="43.30731124009358" lon="10.499479190083786"><ele>1.0</ele><time>2026-04-18T06:05:44Z</time></trkpt><trkpt lat="43.307368342969504" lon="10.49953158654708"><ele>0.9999999999999999</ele><time>2026-04-18T06:05:48Z</time></trkpt><trkpt lat="43.30743384207385" lon="10.499593907812674"><ele>1.0</ele><time>2026-04-18T06:05:53Z</time></trkpt><trkpt lat="43.307497083647476" lon="10.499650014352545"><ele>1.0</ele><time>2026-04-18T06:05:58Z</time></trkpt><trkpt lat="43.307561928491396" lon="10.499704528256904"><ele>1.0</ele><time>2026-04-18T06:06:03Z</time></trkpt><trkpt lat="43.3076235337955" lon="10.499759820138578"><ele>0.9999999999999999</ele><time>2026-04-18T06:06:08Z</time></trkpt><trkpt lat="43.307686512235854" lon="10.4998187665818"><ele>1.0</ele><time>2026-04-18T06:06:13Z</time></trkpt><trkpt lat="43.307748042307736" lon="10.499872996774744"><ele>1.0</ele><time>2026-04-18T06:06:18Z</time></trkpt><trkpt lat="43.307811524063396" lon="10.499931026479407"><ele>0.9999999999999999</ele><time>2026-04-18T06:06:23Z</time></trkpt><trkpt lat="43.307865512234564" lon="10.499977200406143"><ele>1.0</ele><time>2026-04-18T06:06:27Z</time></trkpt><trkpt lat="43.307930174713874" lon="10.500034419359691"><ele>1.0</ele><time>2026-04-18T06:06:32Z</time></trkpt><trkpt lat="43.3079924903197" lon="10.500090181719859"><ele>0.9999999999999999</ele><time>2026-04-18T06:06:37Z</time></trkpt><trkpt lat="43.30805465915031" lon="10.50014254960401"><ele>1.0</ele><time>2026-04-18T06:06:42Z</time></trkpt><trkpt lat="43.30811655417772" lon="10.500194564094743"><ele>1.0</ele><time>2026-04-18T06:06:47Z</time></trkpt><trkpt lat="43.30817962059039" lon="10.500247561166711"><ele>0.9999999999999999</ele><time>2026-04-18T06:06:52Z</time></trkpt><trkpt lat="43.30824572129955" lon="10.500297508707664"><ele>1.0</ele><time>2026-04-18T06:06:57Z</time></trkpt><trkpt lat="43.308309895262965" lon="10.500342954970396"><ele>1.0</ele><time>2026-04-18T06:07:02Z</time></trkpt><trkpt lat="43.30837826269666" lon="10.500393835839017"><ele>1.0</ele><time>2026-04-18T06:07:07Z</time></trkpt><trkpt lat="43.308444522243455" lon="10.500442074570094"><ele>0.9999999999999999</ele><time>2026-04-18T06:07:12Z</time></trkpt><trkpt lat="43.30851376893361" lon="10.500490661062765"><ele>1.0</ele><time>2026-04-18T06:07:17Z</time></trkpt><trkpt lat="43.308578886882394" lon="10.500535645233452"><ele>1.0</ele><time>2026-04-18T06:07:22Z</time></trkpt><trkpt lat="43.30864366687332" lon="10.500579474252886"><ele>0.9999999999999999</ele><time>2026-04-18T06:07:27Z</time></trkpt><trkpt lat="43.30871110271272" lon="10.500621582830023"><ele>1.0</ele><time>2026-04-18T06:07:32Z</time></trkpt><trkpt lat="43.30877778584004" lon="10.500663466842079"><ele>1.0</ele><time>2026-04-18T06:07:37Z</time></trkpt><trkpt lat="43.30884400638828" lon="10.500705479803946"><ele>0.9999999999999999</ele><time>2026-04-18T06:07:42Z</time></trkpt><trkpt lat="43.30890914631274" lon="10.500741800556684"><ele>1.0</ele><time>2026-04-18T06:07:47Z</time></trkpt><trkpt lat="43.30897976490464" lon="10.500782914876726"><ele>1.0</ele><time>2026-04-18T06:07:52Z</time></trkpt><trkpt lat="43.30904291598974" lon="10.5008205318288"><ele>1.0</ele><time>2026-04-18T06:07:57Z</time></trkpt><trkpt lat="43.30911192516823" lon="10.500859392619308"><ele>0.9999999999999999</ele><time>2026-04-18T06:08:02Z</time></trkpt><trkpt lat="43.309180989827105" lon="10.500897169217772"><ele>1.0</ele><time>2026-04-18T06:08:07Z</time></trkpt><trkpt lat="43.30924745630659" lon="10.50093537451143"><ele>1.0</ele><time>2026-04-18T06:08:12Z</time></trkpt><trkpt lat="43.30931101593694" lon="10.500973560922596"><ele>0.9999999999999999</ele><time>2026-04-18T06:08:17Z</time></trkpt><trkpt lat="43.309377685023044" lon="10.501006867408506"><ele>1.0</ele><time>2026-04-18T06:08:22Z</time></trkpt><trkpt lat="43.30944439646852" lon="10.501046242728323"><ele>1.0</ele><time>2026-04-18T06:08:27Z</time></trkpt><trkpt lat="43.30951598857891" lon="10.501081142102448"><ele>1.0</ele><time>2026-04-18T06:08:32Z</time></trkpt><trkpt lat="43.30957845399523" lon="10.501118348862919"><ele>0.9999999999999999</ele><time>2026-04-18T06:08:37Z</time></trkpt><trkpt lat="43.3096471775575" lon="10.501157378445624"><ele>1.0</ele><time>2026-04-18T06:08:42Z</time></trkpt><trkpt lat="43.309715786795934" lon="10.501197905408095"><ele>1.0</ele><time>2026-04-18T06:08:47Z</time></trkpt><trkpt lat="43.30977932196908" lon="10.501232126467793"><ele>0.9999999999999999</ele><time>2026-04-18T06:08:52Z</time></trkpt><trkpt lat="43.30984875430216" lon="10.501272218122454"><ele>1.0</ele><time>2026-04-18T06:08:57Z</time></trkpt><trkpt lat="43.3099233177895" lon="10.501311333964674"><ele>1.0</ele><time>2026-04-18T06:09:02Z</time></trkpt><trkpt lat="43.30999006184187" lon="10.501349691587428"><ele>1.0</ele><time>2026-04-18T06:09:07Z</time></trkpt><trkpt lat="43.31005799435336" lon="10.501391562909527"><ele>0.9999999999999999</ele><time>2026-04-18T06:09:12Z</time></trkpt><trkpt lat="43.3101267461419" lon="10.501427787033741"><ele>1.0</ele><time>2026-04-18T06:09:17Z</time></trkpt><trkpt lat="43.31019179735352" lon="10.501465306587184"><ele>1.0</ele><time>2026-04-18T06:09:22Z</time></trkpt><trkpt lat="43.310257257967926" lon="10.501502273237874"><ele>0.9999999999999999</ele><time>2026-04-18T06:09:27Z</time></trkpt><trkpt lat="43.31032454538739" lon="10.501541363467087"><ele>1.0</ele><time>2026-04-18T06:09:32Z</time></trkpt><trkpt lat="43.31039575643811" lon="10.501579777209708"><ele>1.0</ele><time>2026-04-18T06:09:37Z</time></trkpt><trkpt lat="43.3104630691603" lon="10.501615866565842"><ele>1.0</ele><time>2026-04-18T06:09:42Z</time></trkpt><trkpt lat="43.3105289790574" lon="10.50165159608579"><ele>0.9999999999999999</ele><time>2026-04-18T06:09:47Z</time></trkpt><trkpt lat="43.31059615014393" lon="10.501685462809686"><ele>1.0</ele><time>2026-04-18T06:09:52Z</time></trkpt><trkpt lat="43.31066372029609" lon="10.501719728704336"><ele>1.0</ele><time>2026-04-18T06:09:57Z</time></trkpt><trkpt lat="43.31072954660324" lon="10.501755170836796"><ele>0.9999999999999999</ele><time>2026-04-18T06:10:02Z</time></trkpt><trkpt lat="43.3107930133308" lon="10.501790469349258"><ele>1.0</ele><time>2026-04-18T06:10:07Z</time></trkpt><trkpt lat="43.31086088761733" lon="10.501830465948009"><ele>1.0</ele><time>2026-04-18T06:10:12Z</time></trkpt><trkpt lat="43.31092532042967" lon="10.501868998253638"><ele>1.1428571428571428</ele><time>2026-04-18T06:10:17Z</time></trkpt><trkpt lat="43.310995846030195" lon="10.501907223193287"><ele>1.2857142857142856</ele><time>2026-04-18T06:10:22Z</time></trkpt><trkpt lat="43.311054643834" lon="10.501942093168282"><ele>1.4285714285714284</ele><time>2026-04-18T06:10:26Z</time></trkpt><trkpt lat="43.3111170476308" lon="10.501986531094666"><ele>1.5714285714285714</ele><time>2026-04-18T06:10:31Z</time></trkpt><trkpt lat="43.31117821720051" lon="10.502031934173553"><ele>1.714285714285714</ele><time>2026-04-18T06:10:36Z</time></trkpt><trkpt lat="43.31124729980871" lon="10.502081076040154"><ele>1.857142857142857</ele><time>2026-04-18T06:10:41Z</time></trkpt><trkpt lat="43.31131186565337" lon="10.502139018597447"><ele>2.0</ele><time>2026-04-18T06:10:46Z</time></trkpt><trkpt lat="43.31137418641375" lon="10.502197733733489"><ele>2.0</ele><time>2026-04-18T06:10:51Z</time></trkpt><trkpt lat="43.3114357783879" lon="10.502261748220054"><ele>1.9999999999999998</ele><time>2026-04-18T06:10:56Z</time></trkpt><trkpt lat="43.3114862684336" lon="10.50232264142508"><ele>2.0</ele><time>2026-04-18T06:11:00Z</time></trkpt><trkpt lat="43.311538960726566" lon="10.502392639175735"><ele>2.0</ele><time>2026-04-18T06:11:05Z</time></trkpt><trkpt lat="43.31159236257216" lon="10.502466534550729"><ele>1.9999999999999998</ele><time>2026-04-18T06:11:10Z</time></trkpt><trkpt lat="43.31164101675739" lon="10.502534873189656"><ele>2.0</ele><time>2026-04-18T06:11:15Z</time></trkpt><trkpt lat="43.31168721984914" lon="10.502609916780457"><ele>2.0</ele><time>2026-04-18T06:11:20Z</time></trkpt><trkpt lat="43.31173364138271" lon="10.502686636693861"><ele>2.0</ele><time>2026-04-18T06:11:25Z</time></trkpt><trkpt lat="43.31177963799686" lon="10.502769356728841"><ele>1.9999999999999998</ele><time>2026-04-18T06:11:30Z</time></trkpt><trkpt lat="43.311820810574254" lon="10.5028556166472"><ele>2.0</ele><time>2026-04-18T06:11:35Z</time></trkpt><trkpt lat="43.3118630943045" lon="10.502941764112098"><ele>2.0</ele><time>2026-04-18T06:11:40Z</time></trkpt><trkpt lat="43.31190064243638" lon="10.50302848583424"><ele>1.9999999999999998</ele><time>2026-04-18T06:11:45Z</time></trkpt><trkpt lat="43.311936393791726" lon="10.503122858937315"><ele>2.0</ele><time>2026-04-18T06:11:50Z</time></trkpt><trkpt lat="43.31196641819944" lon="10.503199815715067"><ele>2.0</ele><time>2026-04-18T06:11:54Z</time></trkpt><trkpt lat="43.3119984761995" lon="10.503289207305064"><ele>2.0</ele><time>2026-04-18T06:11:59Z</time></trkpt><trkpt lat="43.312032023036075" lon="10.50338320533958"><ele>1.9999999999999998</ele><time>2026-04-18T06:12:04Z</time></trkpt><trkpt lat="43.312062215894116" lon="10.503463678490974"><ele>2.0</ele><time>2026-04-18T06:12:08Z</time></trkpt><trkpt lat="43.31210026944439" lon="10.503567113076956"><ele>2.0</ele><time>2026-04-18T06:12:13Z</time></trkpt><trkpt lat="43.31213306858128" lon="10.503658034936691"><ele>1.9999999999999998</ele><time>2026-04-18T06:12:18Z</time></trkpt><trkpt lat="43.312165242502" lon="10.503745440987466"><ele>2.0</ele><time>2026-04-18T06:12:23Z</time></trkpt><trkpt lat="43.31219734608556" lon="10.503835775725173"><ele>2.0</ele><time>2026-04-18T06:12:28Z</time></trkpt><trkpt lat="43.31223021545234" lon="10.503930377606556"><ele>2.2857142857142856</ele><time>2026-04-18T06:12:33Z</time></trkpt><trkpt lat="43.31226198994086" lon="10.504023697230611"><ele>2.571428571428571</ele><time>2026-04-18T06:12:38Z</time></trkpt><trkpt lat="43.312293985791996" lon="10.50411696717057"><ele>2.8571428571428568</ele><time>2026-04-18T06:12:43Z</time></trkpt><trkpt lat="43.31232684913172" lon="10.504211971935952"><ele>3.142857142857143</ele><time>2026-04-18T06:12:48Z</time></trkpt><trkpt lat="43.31235984903908" lon="10.504301622436191"><ele>3.428571428571428</ele><time>2026-04-18T06:12:53Z</time></trkpt><trkpt lat="43.31239140405614" lon="10.504391986557689"><ele>3.714285714285714</ele><time>2026-04-18T06:12:58Z</time></trkpt><trkpt lat="43.31242413084566" lon="10.504483539976961"><ele>4.0</ele><time>2026-04-18T06:13:03Z</time></trkpt><trkpt lat="43.312451359181956" lon="10.504562255442917"><ele>3.833333333333333</ele><time>2026-04-18T06:13:07Z</time></trkpt><trkpt lat="43.31248631530162" lon="10.504662759538064"><ele>3.6666666666666665</ele><time>2026-04-18T06:13:12Z</time></trkpt><trkpt lat="43.312514344310074" lon="10.504754144916026"><ele>3.5</ele><time>2026-04-18T06:13:17Z</time></trkpt><trkpt lat="43.3125418466595" lon="10.504845967061772"><ele>3.333333333333333</ele><time>2026-04-18T06:13:22Z</time></trkpt><trkpt lat="43.31257146235708" lon="10.504942012601171"><ele>3.1666666666666665</ele><time>2026-04-18T06:13:27Z</time></trkpt><trkpt lat="43.31259804177868" lon="10.505036887775606"><ele>3.0</ele><time>2026-04-18T06:13:32Z</time></trkpt><trkpt lat="43.312622098040116" lon="10.505134050482894"><ele>2.9999999999999996</ele><time>2026-04-18T06:13:37Z</time></trkpt><trkpt lat="43.31264074782996" lon="10.505235785368631"><ele>3.0</ele><time>2026-04-18T06:13:42Z</time></trkpt><trkpt lat="43.31265537543306" lon="10.505333638995062"><ele>3.0</ele><time>2026-04-18T06:13:47Z</time></trkpt><trkpt lat="43.312667764605585" lon="10.505429131576635"><ele>3.0</ele><time>2026-04-18T06:13:52Z</time></trkpt><trkpt lat="43.31267564490029" lon="10.50553558487639"><ele>3.0</ele><time>2026-04-18T06:13:57Z</time></trkpt><trkpt lat="43.312680774983484" lon="10.505630955304548"><ele>2.9999999999999996</ele><time>2026-04-18T06:14:02Z</time></trkpt><trkpt lat="43.312686397239744" lon="10.505731328754537"><ele>3.0</ele><time>2026-04-18T06:14:07Z</time></trkpt><trkpt lat="43.312688596533505" lon="10.50582835439212"><ele>2.8571428571428568</ele><time>2026-04-18T06:14:12Z</time></trkpt><trkpt lat="43.312688644035504" lon="10.505924679910876"><ele>2.7142857142857144</ele><time>2026-04-18T06:14:17Z</time></trkpt><trkpt lat="43.31268964275784" lon="10.506028545281419"><ele>2.571428571428571</ele><time>2026-04-18T06:14:22Z</time></trkpt><trkpt lat="43.31268933481145" lon="10.506116010375546"><ele>2.4285714285714284</ele><time>2026-04-18T06:14:26Z</time></trkpt><trkpt lat="43.312689227655525" lon="10.50621501883226"><ele>2.2857142857142856</ele><time>2026-04-18T06:14:31Z</time></trkpt><trkpt lat="43.31268870938354" lon="10.506313673231736"><ele>2.142857142857143</ele><time>2026-04-18T06:14:36Z</time></trkpt><trkpt lat="43.31268981542952" lon="10.506416161640301"><ele>2.0</ele><time>2026-04-18T06:14:41Z</time></trkpt><trkpt lat="43.312689854082564" lon="10.506515046972622"><ele>2.0</ele><time>2026-04-18T06:14:46Z</time></trkpt><trkpt lat="43.31268966633025" lon="10.506604862089365"><ele>1.9999999999999998</ele><time>2026-04-18T06:14:51Z</time></trkpt><trkpt lat="43.312689671621264" lon="10.506703639885872"><ele>2.0</ele><time>2026-04-18T06:14:56Z</time></trkpt><trkpt lat="43.31269375382747" lon="10.506789999923404"><ele>2.0</ele><time>2026-04-18T06:15:00Z</time></trkpt><trkpt lat="43.312691409845925" lon="10.506891011805246"><ele>1.9999999999999998</ele><time>2026-04-18T06:15:05Z</time></trkpt><trkpt lat="43.312691828517" lon="10.50698854365634"><ele>2.0</ele><time>2026-04-18T06:15:10Z</time></trkpt><trkpt lat="43.31269523759261" lon="10.507080150368163"><ele>2.0</ele><time>2026-04-18T06:15:15Z</time></trkpt><trkpt lat="43.312690606349214" lon="10.507177449225257"><ele>2.0</ele><time>2026-04-18T06:15:20Z</time></trkpt><trkpt lat="43.31269533778377" lon="10.50726525407819"><ele>1.9999999999999998</ele><time>2026-04-18T06:15:24Z</time></trkpt><trkpt lat="43.31269699490394" lon="10.507370849874825"><ele>2.0</ele><time>2026-04-18T06:15:29Z</time></trkpt><trkpt lat="43.31269889073461" lon="10.507474466974116"><ele>2.0</ele><time>2026-04-18T06:15:34Z</time></trkpt><trkpt lat="43.312700746107026" lon="10.507577981724749"><ele>1.9999999999999998</ele><time>2026-04-18T06:15:39Z</time></trkpt><trkpt lat="43.31270267398166" lon="10.507679772133105"><ele>2.0</ele><time>2026-04-18T06:15:44Z</time></trkpt><trkpt lat="43.312702959266865" lon="10.507775208462704"><ele>2.0</ele><time>2026-04-18T06:15:49Z</time></trkpt><trkpt lat="43.31270614647317" lon="10.507864254723993"><ele>2.142857142857143</ele><time>2026-04-18T06:15:53Z</time></trkpt><trkpt lat="43.31271038482373" lon="10.507961520897561"><ele>2.2857142857142856</ele><time>2026-04-18T06:15:58Z</time></trkpt><trkpt lat="43.31271807693698" lon="10.508064478788715"><ele>2.4285714285714284</ele><time>2026-04-18T06:16:03Z</time></trkpt><trkpt lat="43.31272724865725" lon="10.508165005848372"><ele>2.571428571428571</ele><time>2026-04-18T06:16:08Z</time></trkpt><trkpt lat="43.31274050103488" lon="10.508268535180841"><ele>2.7142857142857144</ele><time>2026-04-18T06:16:13Z</time></trkpt><trkpt lat="43.312754389884965" lon="10.508369216960057"><ele>2.8571428571428568</ele><time>2026-04-18T06:16:18Z</time></trkpt><trkpt lat="43.31276786818589" lon="10.508474333932364"><ele>3.0</ele><time>2026-04-18T06:16:23Z</time></trkpt><trkpt lat="43.31278439941273" lon="10.508574052551205"><ele>2.9999999999999996</ele><time>2026-04-18T06:16:28Z</time></trkpt><trkpt lat="43.312801134783896" lon="10.508675976542136"><ele>3.0</ele><time>2026-04-18T06:16:33Z</time></trkpt><trkpt lat="43.312819102175936" lon="10.50877458039089"><ele>3.0</ele><time>2026-04-18T06:16:38Z</time></trkpt><trkpt lat="43.312836542466904" lon="10.508873794936623"><ele>3.0</ele><time>2026-04-18T06:16:43Z</time></trkpt><trkpt lat="43.3128569279788" lon="10.508971219043785"><ele>3.0</ele><time>2026-04-18T06:16:48Z</time></trkpt><trkpt lat="43.31287594187857" lon="10.509066872204677"><ele>2.9999999999999996</ele><time>2026-04-18T06:16:53Z</time></trkpt><trkpt lat="43.312899324833495" lon="10.509152820440413"><ele>3.0</ele><time>2026-04-18T06:16:58Z</time></trkpt><trkpt lat="43.312918015475596" lon="10.50924085668052"><ele>2.9999999999999996</ele><time>2026-04-18T06:17:03Z</time></trkpt><trkpt lat="43.31293267627376" lon="10.509346092182541"><ele>3.0</ele><time>2026-04-18T06:17:08Z</time></trkpt><trkpt lat="43.3129494270073" lon="10.509446495730078"><ele>3.0</ele><time>2026-04-18T06:17:13Z</time></trkpt><trkpt lat="43.31297119326451" lon="10.509548940373385"><ele>3.0</ele><time>2026-04-18T06:17:18Z</time></trkpt><trkpt lat="43.31298940056031" lon="10.509651883895119"><ele>3.0</ele><time>2026-04-18T06:17:23Z</time></trkpt><trkpt lat="43.31300806030987" lon="10.509751636430568"><ele>2.9999999999999996</ele><time>2026-04-18T06:17:28Z</time></trkpt><trkpt lat="43.313024181995665" lon="10.509835896605484"><ele>3.0</ele><time>2026-04-18T06:17:32Z</time></trkpt><trkpt lat="43.31304346192224" lon="10.50993322271952"><ele>2.9999999999999996</ele><time>2026-04-18T06:17:37Z</time></trkpt><trkpt lat="43.31306103068017" lon="10.510017624938047"><ele>3.0</ele><time>2026-04-18T06:17:41Z</time></trkpt><trkpt lat="43.31308682363878" lon="10.510110690352633"><ele>3.0</ele><time>2026-04-18T06:17:46Z</time></trkpt><trkpt lat="43.31311059820242" lon="10.510195095905226"><ele>3.0</ele><time>2026-04-18T06:17:51Z</time></trkpt><trkpt lat="43.31312141022077" lon="10.510299942753221"><ele>3.0</ele><time>2026-04-18T06:17:56Z</time></trkpt><trkpt lat="43.313134516707855" lon="10.51039982026318"><ele>2.9999999999999996</ele><time>2026-04-18T06:18:01Z</time></trkpt><trkpt lat="43.31315330301235" lon="10.510498971877343"><ele>3.0</ele><time>2026-04-18T06:18:06Z</time></trkpt><trkpt lat="43.31317494046" lon="10.510599480758112"><ele>3.0</ele><time>2026-04-18T06:18:11Z</time></trkpt><trkpt lat="43.31319320501073" lon="10.51070111644697"><ele>3.0</ele><time>2026-04-18T06:18:16Z</time></trkpt><trkpt lat="43.31321177781601" lon="10.510800843188488"><ele>3.0</ele><time>2026-04-18T06:18:21Z</time></trkpt><trkpt lat="43.31323327512505" lon="10.510901680600504"><ele>3.0</ele><time>2026-04-18T06:18:26Z</time></trkpt><trkpt lat="43.31329218824295" lon="10.510971613306268"><ele>3.0</ele><time>2026-04-18T06:18:31Z</time></trkpt><trkpt lat="43.313366759282594" lon="10.51099079547465"><ele>3.0</ele><time>2026-04-18T06:18:36Z</time></trkpt><trkpt lat="43.313438834647094" lon="10.511020726535165"><ele>2.9999999999999996</ele><time>2026-04-18T06:18:41Z</time></trkpt><trkpt lat="43.31349631575136" lon="10.511076607263576"><ele>3.0</ele><time>2026-04-18T06:18:46Z</time></trkpt><trkpt lat="43.31352831654457" lon="10.511166046037753"><ele>3.0</ele><time>2026-04-18T06:18:51Z</time></trkpt><trkpt lat="43.31356197784659" lon="10.511256159062171"><ele>3.0</ele><time>2026-04-18T06:18:56Z</time></trkpt><trkpt lat="43.313592979768565" lon="10.511350933178393"><ele>3.0</ele><time>2026-04-18T06:19:01Z</time></trkpt><trkpt lat="43.31362037121776" lon="10.511429758688678"><ele>2.9999999999999996</ele><time>2026-04-18T06:19:05Z</time></trkpt><trkpt lat="43.313652807445266" lon="10.511520303237551"><ele>3.0</ele><time>2026-04-18T06:19:10Z</time></trkpt><trkpt lat="43.313680674852854" lon="10.511615547224896"><ele>3.8571428571428568</ele><time>2026-04-18T06:19:15Z</time></trkpt><trkpt lat="43.31370302870635" lon="10.511707750226456"><ele>4.714285714285714</ele><time>2026-04-18T06:19:21Z</time></trkpt><trkpt lat="43.31373666123684" lon="10.511801334794546"><ele>5.571428571428572</ele><time>2026-04-18T06:19:27Z</time></trkpt><trkpt lat="43.31375987391765" lon="10.511885953766178"><ele>6.428571428571429</ele><time>2026-04-18T06:19:32Z</time></trkpt><trkpt lat="43.31377079555531" lon="10.511974154690478"><ele>7.285714285714286</ele><time>2026-04-18T06:19:38Z</time></trkpt><trkpt lat="43.31378010398953" lon="10.512063533716718"><ele>8.142857142857144</ele><time>2026-04-18T06:19:42Z</time></trkpt><trkpt lat="43.31383019119189" lon="10.512117369898878"><ele>9.0</ele><time>2026-04-18T06:19:47Z</time></trkpt><trkpt lat="43.313854367429606" lon="10.512221286763005"><ele>9.142857142857144</ele><time>2026-04-18T06:19:52Z</time></trkpt><trkpt lat="43.31387422851173" lon="10.512308044679871"><ele>9.285714285714286</ele><time>2026-04-18T06:19:56Z</time></trkpt><trkpt lat="43.313881363419895" lon="10.5124019282231"><ele>9.428571428571429</ele><time>2026-04-18T06:20:00Z</time></trkpt><trkpt lat="43.3138899806385" lon="10.512492088428683"><ele>9.571428571428573</ele><time>2026-04-18T06:20:04Z</time></trkpt><trkpt lat="43.31387828022245" lon="10.512588180158767"><ele>9.714285714285715</ele><time>2026-04-18T06:20:08Z</time></trkpt><trkpt lat="43.313851684801215" lon="10.512672358887652"><ele>9.857142857142858</ele><time>2026-04-18T06:20:12Z</time></trkpt><trkpt lat="43.31381809259466" lon="10.512748450798448"><ele>10.0</ele><time>2026-04-18T06:20:16Z</time></trkpt><trkpt lat="43.313800718125464" lon="10.512842800054539"><ele>10.0</ele><time>2026-04-18T06:20:21Z</time></trkpt><trkpt lat="43.31382526503046" lon="10.512926431611527"><ele>10.0</ele><time>2026-04-18T06:20:26Z</time></trkpt><trkpt lat="43.313852098032974" lon="10.513010673982443"><ele>10.0</ele><time>2026-04-18T06:20:31Z</time></trkpt><trkpt lat="43.31387819094622" lon="10.51310229750205"><ele>10.0</ele><time>2026-04-18T06:20:38Z</time></trkpt><trkpt lat="43.313908186342" lon="10.51320348944855"><ele>10.0</ele><time>2026-04-18T06:20:43Z</time></trkpt><trkpt lat="43.31393346129681" lon="10.513284241623333"><ele>10.0</ele><time>2026-04-18T06:20:47Z</time></trkpt><trkpt lat="43.31396040149225" lon="10.51337011926011"><ele>10.0</ele><time>2026-04-18T06:20:52Z</time></trkpt><trkpt lat="43.31398731076136" lon="10.513465775621684"><ele>10.0</ele><time>2026-04-18T06:20:58Z</time></trkpt><trkpt lat="43.31400861991614" lon="10.513550089204113"><ele>10.0</ele><time>2026-04-18T06:21:03Z</time></trkpt><trkpt lat="43.31397885051423" lon="10.51363507665244"><ele>10.0</ele><time>2026-04-18T06:21:08Z</time></trkpt><trkpt lat="43.31393737547954" lon="10.513703942007226"><ele>10.0</ele><time>2026-04-18T06:21:13Z</time></trkpt><trkpt lat="43.31388666772685" lon="10.513770337573387"><ele>10.0</ele><time>2026-04-18T06:21:20Z</time></trkpt><trkpt lat="43.313903741022365" lon="10.51385509572935"><ele>10.0</ele><time>2026-04-18T06:21:26Z</time></trkpt><trkpt lat="43.31393980417319" lon="10.513942038352576"><ele>10.0</ele><time>2026-04-18T06:21:32Z</time></trkpt><trkpt lat="43.313980749133684" lon="10.514015244070821"><ele>9.571428571428571</ele><time>2026-04-18T06:21:39Z</time></trkpt><trkpt lat="43.314015004376344" lon="10.514089304855265"><ele>9.142857142857142</ele><time>2026-04-18T06:21:44Z</time></trkpt><trkpt lat="43.31406146427396" lon="10.514163307076492"><ele>8.714285714285715</ele><time>2026-04-18T06:21:50Z</time></trkpt><trkpt lat="43.31409253059003" lon="10.514243784395669"><ele>8.285714285714285</ele><time>2026-04-18T06:21:54Z</time></trkpt><trkpt lat="43.31413926538058" lon="10.514307092005646"><ele>7.857142857142858</ele><time>2026-04-18T06:22:00Z</time></trkpt><trkpt lat="43.31417631966804" lon="10.514389601526636"><ele>7.428571428571429</ele><time>2026-04-18T06:22:06Z</time></trkpt><trkpt lat="43.314208710256494" lon="10.514465569880688"><ele>7.0</ele><time>2026-04-18T06:22:11Z</time></trkpt><trkpt lat="43.31423859674326" lon="10.514552243983307"><ele>7.285714285714286</ele><time>2026-04-18T06:22:16Z</time></trkpt><trkpt lat="43.31427585517383" lon="10.514635517076803"><ele>7.571428571428571</ele><time>2026-04-18T06:22:22Z</time></trkpt><trkpt lat="43.31428621304124" lon="10.514721115179704"><ele>7.857142857142858</ele><time>2026-04-18T06:22:27Z</time></trkpt><trkpt lat="43.314237032656266" lon="10.51481484436935"><ele>8.142857142857142</ele><time>2026-04-18T06:22:32Z</time></trkpt><trkpt lat="43.314189953753235" lon="10.514899052904692"><ele>8.428571428571429</ele><time>2026-04-18T06:22:36Z</time></trkpt><trkpt lat="43.31415312574901" lon="10.514980248055746"><ele>8.714285714285715</ele><time>2026-04-18T06:22:40Z</time></trkpt><trkpt lat="43.314134285516054" lon="10.515082364346114"><ele>9.0</ele><time>2026-04-18T06:22:44Z</time></trkpt><trkpt lat="43.314116055431796" lon="10.515179216901636"><ele>9.000000000000002</ele><time>2026-04-18T06:22:48Z</time></trkpt><trkpt lat="43.31409250614117" lon="10.51526765949002"><ele>9.0</ele><time>2026-04-18T06:22:53Z</time></trkpt><trkpt lat="43.314022276760205" lon="10.515315837757656"><ele>9.0</ele><time>2026-04-18T06:22:58Z</time></trkpt><trkpt lat="43.313965246400755" lon="10.515374779724489"><ele>9.0</ele><time>2026-04-18T06:23:03Z</time></trkpt><trkpt lat="43.3139510880443" lon="10.515474134562453"><ele>9.0</ele><time>2026-04-18T06:23:09Z</time></trkpt><trkpt lat="43.31390241556371" lon="10.515529580934512"><ele>9.000000000000002</ele><time>2026-04-18T06:23:15Z</time></trkpt><trkpt lat="43.31383460541695" lon="10.515553505263691"><ele>9.0</ele><time>2026-04-18T06:23:20Z</time></trkpt><trkpt lat="43.313774894275745" lon="10.515581384164902"><ele>9.428571428571429</ele><time>2026-04-18T06:23:25Z</time></trkpt><trkpt lat="43.3137408259787" lon="10.515659633996295"><ele>9.857142857142858</ele><time>2026-04-18T06:23:32Z</time></trkpt><trkpt lat="43.313674374746775" lon="10.515692057723022"><ele>10.285714285714285</ele><time>2026-04-18T06:23:38Z</time></trkpt><trkpt lat="43.31359867633044" lon="10.515672814095579"><ele>10.714285714285715</ele><time>2026-04-18T06:23:41Z</time></trkpt><trkpt lat="43.31352712250512" lon="10.515704572290243"><ele>11.142857142857142</ele><time>2026-04-18T06:23:46Z</time></trkpt><trkpt lat="43.3134907572979" lon="10.515791387951118"><ele>11.571428571428571</ele><time>2026-04-18T06:23:53Z</time></trkpt><trkpt lat="43.313434774220156" lon="10.515848338380147"><ele>12.0</ele><time>2026-04-18T06:23:57Z</time></trkpt><trkpt lat="43.31337301876865" lon="10.51591372150903"><ele>11.999999999999998</ele><time>2026-04-18T06:24:01Z</time></trkpt><trkpt lat="43.313318924758086" lon="10.515991626827082"><ele>12.0</ele><time>2026-04-18T06:24:05Z</time></trkpt><trkpt lat="43.31328341293415" lon="10.516073968154723"><ele>12.0</ele><time>2026-04-18T06:24:10Z</time></trkpt><trkpt lat="43.31322364954212" lon="10.516110659206321"><ele>12.0</ele><time>2026-04-18T06:24:16Z</time></trkpt><trkpt lat="43.31315851880915" lon="10.516119146636118"><ele>12.0</ele><time>2026-04-18T06:24:21Z</time></trkpt><trkpt lat="43.31308992240739" lon="10.516170668834102"><ele>11.999999999999998</ele><time>2026-04-18T06:24:28Z</time></trkpt><trkpt lat="43.31303949919299" lon="10.51624294076086"><ele>12.0</ele><time>2026-04-18T06:24:33Z</time></trkpt><trkpt lat="43.3129906369965" lon="10.516297627848424"><ele>12.285714285714285</ele><time>2026-04-18T06:24:36Z</time></trkpt><trkpt lat="43.31294339560089" lon="10.516365716171242"><ele>12.571428571428571</ele><time>2026-04-18T06:24:42Z</time></trkpt><trkpt lat="43.312918896512045" lon="10.516456638462621"><ele>12.857142857142858</ele><time>2026-04-18T06:24:49Z</time></trkpt><trkpt lat="43.31285826596227" lon="10.516510346149785"><ele>13.142857142857142</ele><time>2026-04-18T06:24:55Z</time></trkpt><trkpt lat="43.312792936138926" lon="10.51653085349894"><ele>13.428571428571429</ele><time>2026-04-18T06:24:59Z</time></trkpt><trkpt lat="43.312728187006805" lon="10.516557188864544"><ele>13.714285714285714</ele><time>2026-04-18T06:25:04Z</time></trkpt><trkpt lat="43.31266131732691" lon="10.516610884672328"><ele>14.0</ele><time>2026-04-18T06:25:09Z</time></trkpt><trkpt lat="43.312599476301195" lon="10.516668225086871"><ele>14.0</ele><time>2026-04-18T06:25:14Z</time></trkpt><trkpt lat="43.312543623360625" lon="10.516714622680105"><ele>14.0</ele><time>2026-04-18T06:25:19Z</time></trkpt><trkpt lat="43.31248075804677" lon="10.516760124518935"><ele>14.0</ele><time>2026-04-18T06:25:24Z</time></trkpt><trkpt lat="43.31241352467875" lon="10.516798051087862"><ele>14.0</ele><time>2026-04-18T06:25:28Z</time></trkpt><trkpt lat="43.31234405452656" lon="10.516812256491162"><ele>14.0</ele><time>2026-04-18T06:25:33Z</time></trkpt><trkpt lat="43.312281268377596" lon="10.516843841205075"><ele>14.0</ele><time>2026-04-18T06:25:40Z</time></trkpt><trkpt lat="43.31222115556929" lon="10.516898577613452"><ele>14.0</ele><time>2026-04-18T06:25:45Z</time></trkpt><trkpt lat="43.31214629489219" lon="10.516931496242432"><ele>14.142857142857142</ele><time>2026-04-18T06:25:49Z</time></trkpt><trkpt lat="43.3120870890639" lon="10.516983119185907"><ele>14.285714285714285</ele><time>2026-04-18T06:25:55Z</time></trkpt><trkpt lat="43.31202310059252" lon="10.517026731203165"><ele>14.428571428571429</ele><time>2026-04-18T06:26:00Z</time></trkpt><trkpt lat="43.31195837006958" lon="10.5170621502112"><ele>14.571428571428571</ele><time>2026-04-18T06:26:05Z</time></trkpt><trkpt lat="43.31188467483037" lon="10.517067243847455"><ele>14.714285714285714</ele><time>2026-04-18T06:26:10Z</time></trkpt><trkpt lat="43.31182685253263" lon="10.517112428416887"><ele>14.857142857142858</ele><time>2026-04-18T06:26:15Z</time></trkpt><trkpt lat="43.311764202389334" lon="10.51712974515936"><ele>15.0</ele><time>2026-04-18T06:26:20Z</time></trkpt><trkpt lat="43.3116968627767" lon="10.517158236823482"><ele>15.142857142857142</ele><time>2026-04-18T06:26:26Z</time></trkpt><trkpt lat="43.31161344713695" lon="10.517160103169502"><ele>15.285714285714285</ele><time>2026-04-18T06:26:32Z</time></trkpt><trkpt lat="43.31153697714198" lon="10.517131917511525"><ele>15.428571428571427</ele><time>2026-04-18T06:26:35Z</time></trkpt><trkpt lat="43.3114773649452" lon="10.517176892025239"><ele>15.571428571428571</ele><time>2026-04-18T06:26:41Z</time></trkpt><trkpt lat="43.31142204659608" lon="10.517236917397005"><ele>15.714285714285712</ele><time>2026-04-18T06:26:46Z</time></trkpt><trkpt lat="43.31136608746847" lon="10.51729147596383"><ele>15.857142857142856</ele><time>2026-04-18T06:26:52Z</time></trkpt><trkpt lat="43.3113134916389" lon="10.517345189377572"><ele>16.0</ele><time>2026-04-18T06:26:56Z</time></trkpt><trkpt lat="43.31126438874461" lon="10.517405626566132"><ele>16.0</ele><time>2026-04-18T06:27:00Z</time></trkpt><trkpt lat="43.31120557777398" lon="10.517474768486405"><ele>15.999999999999998</ele><time>2026-04-18T06:27:05Z</time></trkpt><trkpt lat="43.3111476089936" lon="10.517514658867578"><ele>16.0</ele><time>2026-04-18T06:27:09Z</time></trkpt><trkpt lat="43.31110235931811" lon="10.517581772570278"><ele>16.0</ele><time>2026-04-18T06:27:14Z</time></trkpt><trkpt lat="43.31103064763496" lon="10.51761527371584"><ele>15.999999999999998</ele><time>2026-04-18T06:27:21Z</time></trkpt><trkpt lat="43.31095643583716" lon="10.517633314021086"><ele>16.0</ele><time>2026-04-18T06:27:26Z</time></trkpt><trkpt lat="43.310887941663744" lon="10.51764673465569"><ele>16.0</ele><time>2026-04-18T06:27:39Z</time></trkpt><trkpt lat="43.31083779370482" lon="10.517719200540842"><ele>16.0</ele><time>2026-04-18T06:27:46Z</time></trkpt><trkpt lat="43.31079947747965" lon="10.517796344673938"><ele>15.999999999999998</ele><time>2026-04-18T06:28:09Z</time></trkpt><trkpt lat="43.31073530767259" lon="10.517796092961767"><ele>16.0</ele><time>2026-04-18T06:28:14Z</time></trkpt><trkpt lat="43.31066088662385" lon="10.517783889374636"><ele>16.0</ele><time>2026-04-18T06:28:19Z</time></trkpt><trkpt lat="43.31058253342447" lon="10.517815006130558"><ele>15.999999999999998</ele><time>2026-04-18T06:28:24Z</time></trkpt><trkpt lat="43.310527937645624" lon="10.517861173509836"><ele>16.0</ele><time>2026-04-18T06:28:28Z</time></trkpt><trkpt lat="43.310453865586105" lon="10.51788869132668"><ele>16.0</ele><time>2026-04-18T06:28:33Z</time></trkpt><trkpt lat="43.310394667750806" lon="10.517924142898437"><ele>16.285714285714285</ele><time>2026-04-18T06:28:38Z</time></trkpt><trkpt lat="43.31032801176685" lon="10.517946775279844"><ele>16.57142857142857</ele><time>2026-04-18T06:28:44Z</time></trkpt><trkpt lat="43.31026166039259" lon="10.5179591478266"><ele>16.857142857142858</ele><time>2026-04-18T06:28:50Z</time></trkpt><trkpt lat="43.31020548457188" lon="10.5180328603837"><ele>17.142857142857142</ele><time>2026-04-18T06:28:54Z</time></trkpt><trkpt lat="43.31014561921313" lon="10.518078098288225"><ele>17.42857142857143</ele><time>2026-04-18T06:29:00Z</time></trkpt><trkpt lat="43.31007678221924" lon="10.51807806988994"><ele>17.714285714285715</ele><time>2026-04-18T06:29:06Z</time></trkpt><trkpt lat="43.310007194815945" lon="10.518072412250017"><ele>18.0</ele><time>2026-04-18T06:29:10Z</time></trkpt><trkpt lat="43.309942683696704" lon="10.518031150123239"><ele>18.000000000000004</ele><time>2026-04-18T06:29:14Z</time></trkpt><trkpt lat="43.30988065872567" lon="10.51801482551424"><ele>18.0</ele><time>2026-04-18T06:29:19Z</time></trkpt><trkpt lat="43.30981456555262" lon="10.518039998809842"><ele>18.0</ele><time>2026-04-18T06:29:27Z</time></trkpt><trkpt lat="43.309769155982885" lon="10.518112461357449"><ele>18.0</ele><time>2026-04-18T06:29:32Z</time></trkpt><trkpt lat="43.309711835149486" lon="10.518162273088151"><ele>18.0</ele><time>2026-04-18T06:29:37Z</time></trkpt><trkpt lat="43.30964728183298" lon="10.518219831418126"><ele>18.000000000000004</ele><time>2026-04-18T06:29:43Z</time></trkpt><trkpt lat="43.30957069924239" lon="10.518231692844466"><ele>18.0</ele><time>2026-04-18T06:29:47Z</time></trkpt><trkpt lat="43.30950160529253" lon="10.518234323688157"><ele>17.142857142857146</ele><time>2026-04-18T06:29:51Z</time></trkpt><trkpt lat="43.30943222246121" lon="10.518248892890808"><ele>16.285714285714285</ele><time>2026-04-18T06:29:55Z</time></trkpt><trkpt lat="43.30936871321383" lon="10.518283828764282"><ele>15.428571428571429</ele><time>2026-04-18T06:30:00Z</time></trkpt><trkpt lat="43.30931853840612" lon="10.518337274346237"><ele>14.571428571428573</ele><time>2026-04-18T06:30:07Z</time></trkpt><trkpt lat="43.30926006197591" lon="10.518402815333358"><ele>13.714285714285715</ele><time>2026-04-18T06:30:14Z</time></trkpt><trkpt lat="43.30924290045503" lon="10.518494109466483"><ele>12.857142857142856</ele><time>2026-04-18T06:30:24Z</time></trkpt><trkpt lat="43.309232214116385" lon="10.518604594445144"><ele>12.0</ele><time>2026-04-18T06:30:31Z</time></trkpt><trkpt lat="43.30922034803939" lon="10.518702425812615"><ele>11.857142857142856</ele><time>2026-04-18T06:30:38Z</time></trkpt><trkpt lat="43.3092287891539" lon="10.518790883080708"><ele>11.714285714285714</ele><time>2026-04-18T06:30:42Z</time></trkpt><trkpt lat="43.30925152723213" lon="10.518891443563135"><ele>11.571428571428571</ele><time>2026-04-18T06:30:47Z</time></trkpt><trkpt lat="43.30927019623844" lon="10.518985620524418"><ele>11.428571428571427</ele><time>2026-04-18T06:30:53Z</time></trkpt><trkpt lat="43.30929547192607" lon="10.519075047118026"><ele>11.285714285714285</ele><time>2026-04-18T06:30:58Z</time></trkpt><trkpt lat="43.3092976405298" lon="10.519166615123833"><ele>11.142857142857142</ele><time>2026-04-18T06:31:06Z</time></trkpt><trkpt lat="43.309310809982456" lon="10.519263491615934"><ele>11.0</ele><time>2026-04-18T06:31:14Z</time></trkpt><trkpt lat="43.309349770145246" lon="10.51933966901334"><ele>11.0</ele><time>2026-04-18T06:31:18Z</time></trkpt><trkpt lat="43.30938176011461" lon="10.519431671015129"><ele>11.0</ele><time>2026-04-18T06:31:22Z</time></trkpt><trkpt lat="43.30940163218058" lon="10.519515281048118"><ele>11.0</ele><time>2026-04-18T06:31:26Z</time></trkpt><trkpt lat="43.30941835804451" lon="10.519617658798776"><ele>11.0</ele><time>2026-04-18T06:31:31Z</time></trkpt><trkpt lat="43.30944183604942" lon="10.51970817760985"><ele>11.0</ele><time>2026-04-18T06:31:36Z</time></trkpt><trkpt lat="43.30948166967786" lon="10.51979115994378"><ele>11.0</ele><time>2026-04-18T06:31:42Z</time></trkpt><trkpt lat="43.30948402756462" lon="10.519903449528808"><ele>11.0</ele><time>2026-04-18T06:31:49Z</time></trkpt><trkpt lat="43.30951424096492" lon="10.519992003170506"><ele>11.142857142857142</ele><time>2026-04-18T06:31:54Z</time></trkpt><trkpt lat="43.30953460593689" lon="10.520074288987896"><ele>11.285714285714285</ele><time>2026-04-18T06:31:57Z</time></trkpt><trkpt lat="43.30955137944477" lon="10.520162373215774"><ele>11.428571428571427</ele><time>2026-04-18T06:32:01Z</time></trkpt><trkpt lat="43.30956397799066" lon="10.520263376504754"><ele>11.571428571428571</ele><time>2026-04-18T06:32:06Z</time></trkpt><trkpt lat="43.309616819484106" lon="10.52034702115456"><ele>11.714285714285714</ele><time>2026-04-18T06:32:10Z</time></trkpt><trkpt lat="43.30965742514822" lon="10.52043300113607"><ele>11.857142857142856</ele><time>2026-04-18T06:32:14Z</time></trkpt><trkpt lat="43.30967228695464" lon="10.52052014957077"><ele>12.0</ele><time>2026-04-18T06:32:19Z</time></trkpt><trkpt lat="43.3096937286125" lon="10.520615949222009"><ele>12.142857142857142</ele><time>2026-04-18T06:32:24Z</time></trkpt><trkpt lat="43.309729590107246" lon="10.520710100475469"><ele>12.285714285714285</ele><time>2026-04-18T06:32:28Z</time></trkpt><trkpt lat="43.309756743577495" lon="10.520802522196398"><ele>12.428571428571427</ele><time>2026-04-18T06:32:32Z</time></trkpt><trkpt lat="43.309792922241485" lon="10.520897538239936"><ele>12.571428571428571</ele><time>2026-04-18T06:32:36Z</time></trkpt><trkpt lat="43.309821863379476" lon="10.520982821329698"><ele>12.714285714285715</ele><time>2026-04-18T06:32:39Z</time></trkpt><trkpt lat="43.30983181561743" lon="10.521072465566313"><ele>12.857142857142856</ele><time>2026-04-18T06:32:42Z</time></trkpt><trkpt lat="43.30988986735528" lon="10.521139312089264"><ele>13.0</ele><time>2026-04-18T06:32:46Z</time></trkpt><trkpt lat="43.309894713824555" lon="10.521225952264789"><ele>12.999999999999998</ele><time>2026-04-18T06:32:50Z</time></trkpt><trkpt lat="43.309919223638275" lon="10.521328073039678"><ele>13.0</ele><time>2026-04-18T06:32:55Z</time></trkpt><trkpt lat="43.30996284602719" lon="10.521428533650724"><ele>13.0</ele><time>2026-04-18T06:32:59Z</time></trkpt><trkpt lat="43.31000555406167" lon="10.521524387374825"><ele>13.0</ele><time>2026-04-18T06:33:03Z</time></trkpt><trkpt lat="43.31004331166836" lon="10.521606906818766"><ele>12.999999999999998</ele><time>2026-04-18T06:33:07Z</time></trkpt><trkpt lat="43.31007317533515" lon="10.521692617074489"><ele>13.0</ele><time>2026-04-18T06:33:11Z</time></trkpt><trkpt lat="43.31011843759965" lon="10.521760354958813"><ele>13.0</ele><time>2026-04-18T06:33:15Z</time></trkpt><trkpt lat="43.3101397201066" lon="10.521846018389649"><ele>13.0</ele><time>2026-04-18T06:33:21Z</time></trkpt><trkpt lat="43.31015410880633" lon="10.521948829186597"><ele>13.0</ele><time>2026-04-18T06:33:27Z</time></trkpt><trkpt lat="43.31019499370771" lon="10.522035873746223"><ele>13.0</ele><time>2026-04-18T06:33:32Z</time></trkpt><trkpt lat="43.31021529337261" lon="10.522121180755374"><ele>13.0</ele><time>2026-04-18T06:33:36Z</time></trkpt><trkpt lat="43.310259573810235" lon="10.522187552866853"><ele>13.0</ele><time>2026-04-18T06:33:40Z</time></trkpt><trkpt lat="43.31032627408733" lon="10.522227396936138"><ele>13.0</ele><time>2026-04-18T06:33:45Z</time></trkpt><trkpt lat="43.31039501444805" lon="10.522207642421417"><ele>12.857142857142856</ele><time>2026-04-18T06:33:51Z</time></trkpt><trkpt lat="43.310460119535676" lon="10.522163038267319"><ele>12.714285714285715</ele><time>2026-04-18T06:33:56Z</time></trkpt><trkpt lat="43.31052156787676" lon="10.522141644072892"><ele>12.571428571428571</ele><time>2026-04-18T06:34:01Z</time></trkpt><trkpt lat="43.31058344759726" lon="10.522114911067108"><ele>12.428571428571427</ele><time>2026-04-18T06:34:07Z</time></trkpt><trkpt lat="43.31066031786542" lon="10.522071605413924"><ele>12.285714285714285</ele><time>2026-04-18T06:34:14Z</time></trkpt><trkpt lat="43.31073207604146" lon="10.522079574340127"><ele>12.142857142857142</ele><time>2026-04-18T06:34:20Z</time></trkpt><trkpt lat="43.31078208263104" lon="10.522166348057592"><ele>12.0</ele><time>2026-04-18T06:34:25Z</time></trkpt><trkpt lat="43.31082027174815" lon="10.522238182612366"><ele>12.57142857142857</ele><time>2026-04-18T06:34:29Z</time></trkpt><trkpt lat="43.310857886191876" lon="10.52232981899388"><ele>13.142857142857142</ele><time>2026-04-18T06:34:33Z</time></trkpt><trkpt lat="43.31089562765624" lon="10.522433571388284"><ele>13.714285714285714</ele><time>2026-04-18T06:34:38Z</time></trkpt><trkpt lat="43.31093123763078" lon="10.52251212144894"><ele>14.285714285714285</ele><time>2026-04-18T06:34:41Z</time></trkpt><trkpt lat="43.310956067610995" lon="10.522602801584105"><ele>14.857142857142856</ele><time>2026-04-18T06:34:45Z</time></trkpt><trkpt lat="43.31097542058785" lon="10.522685581356697"><ele>15.428571428571427</ele><time>2026-04-18T06:34:49Z</time></trkpt><trkpt lat="43.31102713685831" lon="10.522768636215606"><ele>16.0</ele><time>2026-04-18T06:34:54Z</time></trkpt><trkpt lat="43.31105609264995" lon="10.522864001433517"><ele>16.0</ele><time>2026-04-18T06:34:59Z</time></trkpt><trkpt lat="43.31108140262765" lon="10.522956638868823"><ele>15.0</ele><time>2026-04-18T06:35:03Z</time></trkpt><trkpt lat="43.3111066357714" lon="10.523050131272024"><ele>15.0</ele><time>2026-04-18T06:35:08Z</time></trkpt><trkpt lat="43.311134691902666" lon="10.523138695346917"><ele>15.0</ele><time>2026-04-18T06:35:12Z</time></trkpt><trkpt lat="43.3112159692787" lon="10.52313696964841"><ele>15.0</ele><time>2026-04-18T06:35:17Z</time></trkpt><trkpt lat="43.31128622428758" lon="10.523110526570601"><ele>15.0</ele><time>2026-04-18T06:35:22Z</time></trkpt></trkseg></trk></gpx>